www.cux-wetter.de
Wetterdaten: Mittwoch, 05.03.2008
Datum Zeit Temp. A. Feuchte A. Luftdruck Regen Wind Richtung Richtung Sonnenschein Solar Taupunkt Windchill Windben
05.03.2008 00:00 3,3 C 56 % 1019,5 hPa 0,0 l/m 36,5 km/h (5 Bft) N-NO 20 0 min 0 W/m -4,6 C -10,3 C 36,5 km/h (5 Bft)
05.03.2008 00:03 3,3 C 55 % 1019,5 hPa 0,0 l/m 42,0 km/h (6 Bft) N-NO 20 0 min 0 W/m -4,9 C -11,4 C 42,0 km/h (6 Bft)
05.03.2008 00:06 3,2 C 47 % 1019,5 hPa 0,0 l/m 37,4 km/h (5 Bft) N-NO 30 0 min 0 W/m -7,0 C -10,7 C 37,4 km/h (5 Bft)
05.03.2008 00:09 3,1 C 47 % 1019,5 hPa 0,0 l/m 38,2 km/h (6 Bft) N 5 0 min 0 W/m -7,1 C -11,0 C 38,2 km/h (6 Bft)
05.03.2008 00:12 3,1 C 52 % 1019,5 hPa 0,0 l/m 43,6 km/h (6 Bft) N 5 0 min 0 W/m -5,8 C -12,0 C 43,6 km/h (6 Bft)
05.03.2008 00:15 3,1 C 55 % 1019,5 hPa 0,0 l/m 33,2 km/h (5 Bft) N 5 0 min 0 W/m -5,0 C -9,9 C 33,2 km/h (5 Bft)
05.03.2008 00:18 3,1 C 59 % 1019,5 hPa 0,0 l/m 39,4 km/h (6 Bft) N 5 0 min 0 W/m -4,1 C -11,2 C 39,4 km/h (6 Bft)
05.03.2008 00:21 3,1 C 61 % 1019,5 hPa 0,0 l/m 43,9 km/h (6 Bft) NO 35 0 min 0 W/m -3,7 C -12,0 C 43,9 km/h (6 Bft)
05.03.2008 00:24 3,1 C 62 % 1019,5 hPa 0,0 l/m 42,1 km/h (6 Bft) N-NO 15 0 min 0 W/m -3,5 C -11,7 C 42,1 km/h (6 Bft)
05.03.2008 00:27 2,9 C 57 % 1019,5 hPa 0,0 l/m 38,9 km/h (6 Bft) N 5 0 min 0 W/m -4,8 C -11,4 C 38,9 km/h (6 Bft)
05.03.2008 00:30 3,0 C 58 % 1019,5 hPa 0,0 l/m 36,4 km/h (5 Bft) N-NO 15 0 min 0 W/m -4,4 C -10,8 C 36,4 km/h (5 Bft)
05.03.2008 00:33 3,1 C 57 % 1019,5 hPa 0,0 l/m 34,0 km/h (5 Bft) N-NO 30 0 min 0 W/m -4,6 C -10,1 C 34,0 km/h (5 Bft)
05.03.2008 00:36 3,1 C 57 % 1019,5 hPa 0,0 l/m 33,2 km/h (5 Bft) N-NO 15 0 min 0 W/m -4,6 C -9,9 C 33,2 km/h (5 Bft)
05.03.2008 00:39 3,1 C 57 % 1019,5 hPa 0,0 l/m 34,1 km/h (5 Bft) N 10 0 min 0 W/m -4,6 C -10,1 C 34,1 km/h (5 Bft)
05.03.2008 00:42 3,0 C 56 % 1019,5 hPa 0,0 l/m 28,5 km/h (5 Bft) N-NO 20 0 min 0 W/m -4,9 C -8,8 C 28,5 km/h (5 Bft)
05.03.2008 00:44 3,0 C 57 % 1019,5 hPa 0,0 l/m 31,1 km/h (5 Bft) N-NO 15 0 min 0 W/m -4,7 C -9,5 C 31,1 km/h (5 Bft)
05.03.2008 00:47 3,0 C 58 % 1019,5 hPa 0,0 l/m 30,8 km/h (5 Bft) N-NO 20 0 min 0 W/m -4,4 C -9,4 C 30,8 km/h (5 Bft)
05.03.2008 00:50 3,0 C 58 % 1019,5 hPa 0,0 l/m 31,3 km/h (5 Bft) N-NO 30 0 min 0 W/m -4,4 C -9,5 C 31,3 km/h (5 Bft)
05.03.2008 00:53 3,0 C 58 % 1019,5 hPa 0,0 l/m 32,1 km/h (5 Bft) N-NO 20 0 min 0 W/m -4,4 C -9,7 C 32,1 km/h (5 Bft)
05.03.2008 00:57 3,0 C 59 % 1019,5 hPa 0,0 l/m 31,5 km/h (5 Bft) N-NO 15 0 min 0 W/m -4,2 C -9,6 C 31,5 km/h (5 Bft)
05.03.2008 01:00 3,0 C 59 % 1019,5 hPa 0,0 l/m 32,3 km/h (5 Bft) NO 35 0 min 0 W/m -4,2 C -9,8 C 32,3 km/h (5 Bft)
05.03.2008 01:03 3,0 C 58 % 1020,5 hPa 0,0 l/m 32,3 km/h (5 Bft) NO 35 0 min 0 W/m -4,4 C -9,8 C 32,3 km/h (5 Bft)
05.03.2008 01:06 3,0 C 58 % 1020,5 hPa 0,0 l/m 32,4 km/h (5 Bft) N 5 0 min 0 W/m -4,4 C -9,8 C 32,4 km/h (5 Bft)
05.03.2008 01:09 3,0 C 59 % 1020,5 hPa 0,0 l/m 32,4 km/h (5 Bft) N 5 0 min 0 W/m -4,2 C -9,8 C 32,4 km/h (5 Bft)
05.03.2008 01:12 3,0 C 60 % 1020,5 hPa 0,0 l/m 35,8 km/h (5 Bft) N-NO 25 0 min 0 W/m -4,0 C -10,6 C 35,8 km/h (5 Bft)
05.03.2008 01:15 3,0 C 59 % 1020,5 hPa 0,0 l/m 35,8 km/h (5 Bft) N-NO 20 0 min 0 W/m -4,2 C -10,6 C 35,8 km/h (5 Bft)
05.03.2008 01:18 2,9 C 58 % 1020,5 hPa 0,0 l/m 27,6 km/h (5 Bft) N-NO 25 0 min 0 W/m -4,5 C -8,6 C 27,6 km/h (5 Bft)
05.03.2008 01:21 2,9 C 56 % 1020,5 hPa 0,0 l/m 32,6 km/h (5 Bft) N-NO 25 0 min 0 W/m -5,0 C -10,0 C 32,6 km/h (5 Bft)
05.03.2008 01:23 2,9 C 56 % 1020,5 hPa 0,0 l/m 28,8 km/h (5 Bft) N-NO 20 0 min 0 W/m -5,0 C -9,0 C 28,8 km/h (5 Bft)
05.03.2008 01:26 2,9 C 58 % 1020,5 hPa 0,0 l/m 34,4 km/h (5 Bft) N 10 0 min 0 W/m -4,5 C -10,5 C 34,4 km/h (5 Bft)
05.03.2008 01:29 2,9 C 55 % 1020,5 hPa 0,0 l/m 32,6 km/h (5 Bft) N 10 0 min 0 W/m -5,2 C -10,0 C 32,6 km/h (5 Bft)
05.03.2008 01:33 2,9 C 55 % 1020,5 hPa 0,0 l/m 37,3 km/h (5 Bft) N 5 0 min 0 W/m -5,2 C -11,1 C 37,3 km/h (5 Bft)
05.03.2008 01:36 2,9 C 57 % 1020,5 hPa 0,0 l/m 31,9 km/h (5 Bft) N-NO 30 0 min 0 W/m -4,8 C -9,8 C 31,9 km/h (5 Bft)
05.03.2008 01:39 2,9 C 57 % 1020,5 hPa 0,0 l/m 32,9 km/h (5 Bft) N-NO 20 0 min 0 W/m -4,8 C -10,1 C 32,9 km/h (5 Bft)
05.03.2008 01:42 2,9 C 56 % 1020,5 hPa 0,0 l/m 36,8 km/h (5 Bft) N-NO 15 0 min 0 W/m -5,0 C -11,0 C 36,8 km/h (5 Bft)
05.03.2008 01:45 2,9 C 59 % 1020,5 hPa 0,0 l/m 40,9 km/h (6 Bft) N 360 0 min 0 W/m -4,3 C -11,8 C 40,9 km/h (6 Bft)
05.03.2008 01:48 2,9 C 56 % 1020,5 hPa 0,0 l/m 31,3 km/h (5 Bft) N-NO 15 0 min 0 W/m -5,0 C -9,7 C 31,3 km/h (5 Bft)
05.03.2008 01:51 2,8 C 58 % 1020,5 hPa 0,0 l/m 30,7 km/h (5 Bft) N-NO 25 0 min 0 W/m -4,6 C -9,7 C 30,7 km/h (5 Bft)
05.03.2008 01:54 2,8 C 55 % 1020,5 hPa 0,0 l/m 34,6 km/h (5 Bft) N 360 0 min 0 W/m -5,3 C -10,6 C 34,6 km/h (5 Bft)
05.03.2008 01:57 2,8 C 57 % 1020,5 hPa 0,0 l/m 33,9 km/h (5 Bft) N 360 0 min 0 W/m -4,9 C -10,5 C 33,9 km/h (5 Bft)
05.03.2008 02:00 2,7 C 56 % 1020,5 hPa 0,0 l/m 30,4 km/h (5 Bft) N-NO 15 0 min 0 W/m -5,2 C -9,7 C 30,4 km/h (5 Bft)
05.03.2008 02:02 2,7 C 57 % 1020,5 hPa 0,0 l/m 29,7 km/h (5 Bft) N-NO 20 0 min 0 W/m -4,9 C -9,5 C 29,7 km/h (5 Bft)
05.03.2008 02:05 2,7 C 57 % 1020,5 hPa 0,0 l/m 33,5 km/h (5 Bft) N 10 0 min 0 W/m -4,9 C -10,5 C 33,5 km/h (5 Bft)
05.03.2008 02:08 2,7 C 57 % 1020,5 hPa 0,0 l/m 29,1 km/h (5 Bft) N-NO 20 0 min 0 W/m -4,9 C -9,4 C 29,1 km/h (5 Bft)
05.03.2008 02:12 2,7 C 57 % 1020,5 hPa 0,0 l/m 32,0 km/h (5 Bft) N-NO 20 0 min 0 W/m -4,9 C -10,1 C 32,0 km/h (5 Bft)
05.03.2008 02:15 2,7 C 57 % 1020,5 hPa 0,0 l/m 29,3 km/h (5 Bft) N-NO 15 0 min 0 W/m -4,9 C -9,4 C 29,3 km/h (5 Bft)
05.03.2008 02:18 2,7 C 59 % 1020,5 hPa 0,0 l/m 30,8 km/h (5 Bft) N-NO 25 0 min 0 W/m -4,5 C -9,8 C 30,8 km/h (5 Bft)
05.03.2008 02:21 2,7 C 60 % 1020,5 hPa 0,0 l/m 30,8 km/h (5 Bft) N 10 0 min 0 W/m -4,3 C -9,8 C 30,8 km/h (5 Bft)
05.03.2008 02:24 2,8 C 61 % 1020,5 hPa 0,0 l/m 34,3 km/h (5 Bft) N-NO 20 0 min 0 W/m -4,0 C -10,6 C 34,3 km/h (5 Bft)
05.03.2008 02:27 2,8 C 62 % 1020,5 hPa 0,0 l/m 38,0 km/h (6 Bft) N-NO 20 0 min 0 W/m -3,7 C -11,4 C 38,0 km/h (6 Bft)
05.03.2008 02:30 2,8 C 61 % 1020,5 hPa 0,0 l/m 35,0 km/h (5 Bft) NO 35 0 min 0 W/m -4,0 C -10,7 C 35,0 km/h (5 Bft)
05.03.2008 02:33 2,7 C 59 % 1020,5 hPa 0,0 l/m 34,5 km/h (5 Bft) N-NO 30 0 min 0 W/m -4,5 C -10,8 C 34,5 km/h (5 Bft)
05.03.2008 02:36 2,7 C 59 % 1020,5 hPa 0,0 l/m 27,8 km/h (5 Bft) N-NO 20 0 min 0 W/m -4,5 C -9,0 C 27,8 km/h (5 Bft)
05.03.2008 02:39 2,5 C 59 % 1020,5 hPa 0,0 l/m 23,8 km/h (4 Bft) N-NO 25 0 min 0 W/m -4,7 C -7,9 C 23,8 km/h (4 Bft)
05.03.2008 02:42 2,4 C 58 % 1020,5 hPa 0,0 l/m 25,7 km/h (4 Bft) N-NO 25 0 min 0 W/m -5,0 C -8,7 C 25,7 km/h (4 Bft)
05.03.2008 02:45 2,4 C 58 % 1020,5 hPa 0,0 l/m 28,2 km/h (5 Bft) N-NO 25 0 min 0 W/m -5,0 C -9,5 C 28,2 km/h (5 Bft)
05.03.2008 02:48 2,4 C 59 % 1020,5 hPa 0,0 l/m 27,6 km/h (5 Bft) N-NO 30 0 min 0 W/m -4,8 C -9,3 C 27,6 km/h (5 Bft)
05.03.2008 02:51 2,4 C 60 % 1020,5 hPa 0,0 l/m 19,2 km/h (3 Bft) N-NO 15 0 min 0 W/m -4,6 C -6,2 C 19,2 km/h (3 Bft)
05.03.2008 02:54 2,4 C 62 % 1020,5 hPa 0,0 l/m 24,5 km/h (4 Bft) N-NO 25 0 min 0 W/m -4,1 C -8,3 C 24,5 km/h (4 Bft)
05.03.2008 02:57 2,5 C 63 % 1020,5 hPa 0,0 l/m 26,0 km/h (4 Bft) NO 35 0 min 0 W/m -3,8 C -8,7 C 26,0 km/h (4 Bft)
05.03.2008 03:00 2,5 C 64 % 1021,5 hPa 0,0 l/m 11,9 km/h (2 Bft) NO 35 0 min 0 W/m -3,6 C -2,1 C 11,9 km/h (2 Bft)
05.03.2008 03:03 2,4 C 65 % 1021,5 hPa 0,0 l/m 28,7 km/h (5 Bft) NO 40 0 min 0 W/m -3,5 C -9,7 C 28,7 km/h (5 Bft)
05.03.2008 03:06 2,4 C 64 % 1021,5 hPa 0,0 l/m 26,5 km/h (4 Bft) N-NO 15 0 min 0 W/m -3,7 C -9,0 C 26,5 km/h (4 Bft)
05.03.2008 03:09 2,4 C 64 % 1021,5 hPa 0,0 l/m 26,0 km/h (4 Bft) N-NO 25 0 min 0 W/m -3,7 C -8,8 C 26,0 km/h (4 Bft)
05.03.2008 03:12 2,4 C 65 % 1021,5 hPa 0,0 l/m 30,1 km/h (5 Bft) N-NO 20 0 min 0 W/m -3,5 C -10,1 C 30,1 km/h (5 Bft)
05.03.2008 03:15 2,5 C 66 % 1021,5 hPa 0,0 l/m 24,5 km/h (4 Bft) N-NO 25 0 min 0 W/m -3,2 C -8,2 C 24,5 km/h (4 Bft)
05.03.2008 03:18 2,4 C 64 % 1021,5 hPa 0,0 l/m 20,3 km/h (4 Bft) NO 35 0 min 0 W/m -3,7 C -6,7 C 20,3 km/h (4 Bft)
05.03.2008 03:21 2,4 C 61 % 1021,5 hPa 0,0 l/m 31,7 km/h (5 Bft) N-NO 25 0 min 0 W/m -4,3 C -10,5 C 31,7 km/h (5 Bft)
05.03.2008 03:24 2,5 C 62 % 1021,5 hPa 0,0 l/m 29,7 km/h (5 Bft) N-NO 30 0 min 0 W/m -4,0 C -9,8 C 29,7 km/h (5 Bft)
05.03.2008 03:27 2,5 C 62 % 1021,5 hPa 0,0 l/m 31,4 km/h (5 Bft) NO 35 0 min 0 W/m -4,0 C -10,3 C 31,4 km/h (5 Bft)
05.03.2008 03:30 2,5 C 63 % 1021,5 hPa 0,0 l/m 29,4 km/h (5 Bft) N-NO 25 0 min 0 W/m -3,8 C -9,7 C 29,4 km/h (5 Bft)
05.03.2008 03:32 2,5 C 62 % 1021,5 hPa 0,0 l/m 26,1 km/h (4 Bft) NO 35 0 min 0 W/m -4,0 C -8,7 C 26,1 km/h (4 Bft)
05.03.2008 03:35 2,3 C 54 % 1021,5 hPa 0,0 l/m 31,8 km/h (5 Bft) N-NO 25 0 min 0 W/m -6,0 C -10,7 C 31,8 km/h (5 Bft)
05.03.2008 03:38 2,3 C 50 % 1021,5 hPa 0,0 l/m 21,6 km/h (4 Bft) N-NO 30 0 min 0 W/m -7,0 C -7,3 C 21,6 km/h (4 Bft)
05.03.2008 03:41 2,3 C 56 % 1021,5 hPa 0,0 l/m 23,8 km/h (4 Bft) N-NO 25 0 min 0 W/m -5,6 C -8,2 C 23,8 km/h (4 Bft)
05.03.2008 03:45 2,3 C 58 % 1021,5 hPa 0,0 l/m 33,9 km/h (5 Bft) NO 40 0 min 0 W/m -5,1 C -11,2 C 33,9 km/h (5 Bft)
05.03.2008 03:48 2,3 C 60 % 1021,5 hPa 0,0 l/m 25,9 km/h (4 Bft) NO 45 0 min 0 W/m -4,6 C -8,9 C 25,9 km/h (4 Bft)
05.03.2008 03:51 2,3 C 61 % 1021,5 hPa 0,0 l/m 24,4 km/h (4 Bft) NO 35 0 min 0 W/m -4,4 C -8,4 C 24,4 km/h (4 Bft)
05.03.2008 03:54 2,3 C 60 % 1021,5 hPa 0,0 l/m 24,4 km/h (4 Bft) NO 35 0 min 0 W/m -4,6 C -8,4 C 24,4 km/h (4 Bft)
05.03.2008 03:57 2,3 C 63 % 1021,5 hPa 0,0 l/m 16,0 km/h (3 Bft) NO 35 0 min 0 W/m -4,0 C -4,7 C 16,0 km/h (3 Bft)
05.03.2008 04:00 2,2 C 65 % 1021,5 hPa 0,0 l/m 12,8 km/h (3 Bft) NO 45 0 min 0 W/m -3,7 C -3,0 C 12,8 km/h (3 Bft)
05.03.2008 04:03 2,2 C 65 % 1021,5 hPa 0,0 l/m 15,1 km/h (3 Bft) NO 45 0 min 0 W/m -3,7 C -4,4 C 15,1 km/h (3 Bft)
05.03.2008 04:05 2,0 C 65 % 1021,5 hPa 0,0 l/m 21,5 km/h (4 Bft) NO 50 0 min 0 W/m -3,9 C -7,7 C 21,5 km/h (4 Bft)
05.03.2008 04:08 1,9 C 66 % 1021,5 hPa 0,0 l/m 13,1 km/h (3 Bft) NO 45 0 min 0 W/m -3,8 C -3,5 C 13,1 km/h (3 Bft)
05.03.2008 04:11 1,8 C 66 % 1021,5 hPa 0,0 l/m 11,4 km/h (2 Bft) NO 45 0 min 0 W/m -3,9 C -2,5 C 11,4 km/h (2 Bft)
05.03.2008 04:15 1,7 C 67 % 1021,5 hPa 0,0 l/m 15,9 km/h (3 Bft) NO 45 0 min 0 W/m -3,8 C -5,4 C 15,9 km/h (3 Bft)
05.03.2008 04:18 1,7 C 68 % 1021,5 hPa 0,0 l/m 19,3 km/h (3 Bft) NO 35 0 min 0 W/m -3,6 C -7,1 C 19,3 km/h (3 Bft)
05.03.2008 04:21 1,6 C 67 % 1021,5 hPa 0,0 l/m 8,1 km/h (2 Bft) NO 40 0 min 0 W/m -3,9 C -0,1 C 8,1 km/h (2 Bft)
05.03.2008 04:24 1,6 C 68 % 1021,5 hPa 0,0 l/m 14,5 km/h (3 Bft) NO 45 0 min 0 W/m -3,7 C -4,8 C 14,5 km/h (3 Bft)
05.03.2008 04:27 1,5 C 69 % 1021,5 hPa 0,0 l/m 12,1 km/h (2 Bft) NO 40 0 min 0 W/m -3,6 C -3,3 C 12,1 km/h (2 Bft)
05.03.2008 04:30 1,5 C 69 % 1022,5 hPa 0,0 l/m 6,1 km/h (2 Bft) NO 40 0 min 0 W/m -3,6 C 1,5 C 6,1 km/h (2 Bft)
05.03.2008 04:33 1,4 C 69 % 1022,5 hPa 0,0 l/m 12,4 km/h (2 Bft) NO 50 0 min 0 W/m -3,7 C -3,7 C 12,4 km/h (2 Bft)
05.03.2008 04:36 1,3 C 69 % 1022,5 hPa 0,0 l/m 11,0 km/h (2 Bft) NO 35 0 min 0 W/m -3,7 C -2,8 C 11,0 km/h (2 Bft)
05.03.2008 04:39 1,2 C 69 % 1022,5 hPa 0,0 l/m 18,5 km/h (3 Bft) NO 35 0 min 0 W/m -3,8 C -7,4 C 18,5 km/h (3 Bft)
05.03.2008 04:42 1,2 C 69 % 1022,5 hPa 0,0 l/m 14,0 km/h (3 Bft) NO 40 0 min 0 W/m -3,8 C -4,9 C 14,0 km/h (3 Bft)
05.03.2008 04:45 1,2 C 69 % 1022,5 hPa 0,0 l/m 17,8 km/h (3 Bft) O-NO 60 0 min 0 W/m -3,8 C -7,0 C 17,8 km/h (3 Bft)
05.03.2008 04:48 1,2 C 69 % 1022,5 hPa 0,0 l/m 13,0 km/h (3 Bft) NO 35 0 min 0 W/m -3,8 C -4,3 C 13,0 km/h (3 Bft)
05.03.2008 04:51 1,2 C 69 % 1022,5 hPa 0,0 l/m 8,2 km/h (2 Bft) NO 45 0 min 0 W/m -3,8 C -0,6 C 8,2 km/h (2 Bft)
05.03.2008 04:54 1,2 C 70 % 1022,5 hPa 0,0 l/m 3,6 km/h (1 Bft) NO 35 0 min 0 W/m -3,7 C 1,2 C 3,6 km/h (1 Bft)
05.03.2008 04:56 1,2 C 70 % 1022,5 hPa 0,0 l/m 6,9 km/h (2 Bft) NO 50 0 min 0 W/m -3,7 C 0,7 C 6,9 km/h (2 Bft)
05.03.2008 04:59 1,2 C 70 % 1022,5 hPa 0,0 l/m 9,4 km/h (2 Bft) NO 40 0 min 0 W/m -3,7 C -1,6 C 9,4 km/h (2 Bft)
05.03.2008 05:03 1,1 C 70 % 1022,5 hPa 0,0 l/m 8,9 km/h (2 Bft) N-NO 30 0 min 0 W/m -3,7 C -1,3 C 8,9 km/h (2 Bft)
05.03.2008 05:06 1,1 C 70 % 1022,5 hPa 0,0 l/m 9,8 km/h (2 Bft) N-NO 25 0 min 0 W/m -3,7 C -2,1 C 9,8 km/h (2 Bft)
05.03.2008 05:09 1,1 C 71 % 1022,5 hPa 0,0 l/m 14,6 km/h (3 Bft) NO 40 0 min 0 W/m -3,6 C -5,4 C 14,6 km/h (3 Bft)
05.03.2008 05:12 1,1 C 71 % 1022,5 hPa 0,0 l/m 13,0 km/h (3 Bft) NO 35 0 min 0 W/m -3,6 C -4,4 C 13,0 km/h (3 Bft)
05.03.2008 05:15 1,1 C 71 % 1022,5 hPa 0,0 l/m 8,5 km/h (2 Bft) NO 45 0 min 0 W/m -3,6 C -1,0 C 8,5 km/h (2 Bft)
05.03.2008 05:18 1,1 C 71 % 1022,5 hPa 0,0 l/m 6,2 km/h (2 Bft) NO 45 0 min 0 W/m -3,6 C 1,1 C 6,2 km/h (2 Bft)
05.03.2008 05:21 1,0 C 71 % 1022,5 hPa 0,0 l/m 6,1 km/h (2 Bft) NO 40 0 min 0 W/m -3,7 C 1,0 C 6,1 km/h (2 Bft)
05.03.2008 05:23 0,9 C 70 % 1022,5 hPa 0,0 l/m 9,6 km/h (2 Bft) N-NO 25 0 min 0 W/m -3,9 C -2,1 C 9,6 km/h (2 Bft)
05.03.2008 05:26 0,9 C 70 % 1022,5 hPa 0,0 l/m 17,8 km/h (3 Bft) NO 45 0 min 0 W/m -3,9 C -7,4 C 17,8 km/h (3 Bft)
05.03.2008 05:29 0,9 C 69 % 1023,5 hPa 0,0 l/m 17,8 km/h (3 Bft) NO 45 0 min 0 W/m -4,1 C -7,4 C 17,8 km/h (3 Bft)
05.03.2008 05:33 0,9 C 68 % 1023,5 hPa 0,0 l/m 10,6 km/h (2 Bft) NO 35 0 min 0 W/m -4,3 C -2,9 C 10,6 km/h (2 Bft)
05.03.2008 05:36 0,9 C 68 % 1023,5 hPa 0,0 l/m 13,5 km/h (3 Bft) NO 35 0 min 0 W/m -4,3 C -5,0 C 13,5 km/h (3 Bft)
05.03.2008 05:39 0,9 C 68 % 1023,5 hPa 0,0 l/m 7,2 km/h (2 Bft) NO 45 0 min 0 W/m -4,3 C 0,1 C 7,2 km/h (2 Bft)
05.03.2008 05:42 0,9 C 67 % 1023,5 hPa 0,0 l/m 18,1 km/h (3 Bft) NO 45 0 min 0 W/m -4,5 C -7,6 C 18,1 km/h (3 Bft)
05.03.2008 05:45 0,9 C 67 % 1023,5 hPa 0,0 l/m 13,2 km/h (3 Bft) NO 40 0 min 0 W/m -4,5 C -4,8 C 13,2 km/h (3 Bft)
05.03.2008 05:48 0,9 C 67 % 1023,5 hPa 0,0 l/m 12,7 km/h (3 Bft) N-NO 30 0 min 0 W/m -4,5 C -4,4 C 12,7 km/h (3 Bft)
05.03.2008 05:51 0,8 C 67 % 1023,5 hPa 0,0 l/m 12,4 km/h (2 Bft) N-NO 30 0 min 0 W/m -4,6 C -4,4 C 12,4 km/h (2 Bft)
05.03.2008 05:54 0,8 C 67 % 1023,5 hPa 0,0 l/m 12,4 km/h (2 Bft) N-NO 30 0 min 0 W/m -4,6 C -4,4 C 12,4 km/h (2 Bft)
05.03.2008 05:57 0,9 C 67 % 1023,5 hPa 0,0 l/m 10,0 km/h (2 Bft) NO 35 0 min 0 W/m -4,5 C -2,5 C 10,0 km/h (2 Bft)
05.03.2008 06:00 0,9 C 67 % 1023,5 hPa 0,0 l/m 10,0 km/h (2 Bft) N-NO 30 0 min 0 W/m -4,5 C -2,5 C 10,0 km/h (2 Bft)
05.03.2008 06:03 0,8 C 67 % 1023,5 hPa 0,0 l/m 11,1 km/h (2 Bft) NO 35 0 min 0 W/m -4,6 C -3,4 C 11,1 km/h (2 Bft)
05.03.2008 06:06 0,8 C 67 % 1023,5 hPa 0,0 l/m 9,6 km/h (2 Bft) NO 40 0 min 0 W/m -4,6 C -2,2 C 9,6 km/h (2 Bft)
05.03.2008 06:09 0,7 C 67 % 1023,5 hPa 0,0 l/m 9,5 km/h (2 Bft) NO 45 0 min 0 W/m -4,7 C -2,3 C 9,5 km/h (2 Bft)
05.03.2008 06:12 0,7 C 67 % 1023,5 hPa 0,0 l/m 8,1 km/h (2 Bft) NO 45 0 min 0 W/m -4,7 C -1,0 C 8,1 km/h (2 Bft)
05.03.2008 06:15 0,7 C 67 % 1023,5 hPa 0,0 l/m 9,2 km/h (2 Bft) NO 40 0 min 0 W/m -4,7 C -2,0 C 9,2 km/h (2 Bft)
05.03.2008 06:18 0,7 C 67 % 1023,5 hPa 0,0 l/m 7,0 km/h (2 Bft) N-NO 30 0 min 0 W/m -4,7 C 0,1 C 7,0 km/h (2 Bft)
05.03.2008 06:21 0,7 C 67 % 1023,5 hPa 0,0 l/m 12,1 km/h (2 Bft) NO 45 0 min 0 W/m -4,7 C -4,3 C 12,1 km/h (2 Bft)
05.03.2008 06:24 0,7 C 67 % 1023,5 hPa 0,0 l/m 18,7 km/h (3 Bft) NO 35 0 min 0 W/m -4,7 C -8,1 C 18,7 km/h (3 Bft)
05.03.2008 06:27 0,7 C 67 % 1023,5 hPa 0,0 l/m 16,7 km/h (3 Bft) NO 35 0 min 0 W/m -4,7 C -7,1 C 16,7 km/h (3 Bft)
05.03.2008 06:30 0,7 C 67 % 1023,5 hPa 0,0 l/m 12,5 km/h (2 Bft) NO 40 0 min 0 W/m -4,7 C -4,5 C 12,5 km/h (2 Bft)
05.03.2008 06:33 0,7 C 67 % 1023,5 hPa 0,0 l/m 7,7 km/h (2 Bft) NO 35 0 min 0 W/m -4,7 C -0,6 C 7,7 km/h (2 Bft)
05.03.2008 06:36 0,7 C 66 % 1023,5 hPa 0,0 l/m 14,1 km/h (3 Bft) NO 40 0 min 0 W/m -4,9 C -5,6 C 14,1 km/h (3 Bft)
05.03.2008 06:38 0,7 C 66 % 1023,5 hPa 0,0 l/m 12,0 km/h (2 Bft) NO 35 0 min 0 W/m -4,9 C -4,2 C 12,0 km/h (2 Bft)
05.03.2008 06:41 0,7 C 66 % 1023,5 hPa 0,0 l/m 16,3 km/h (3 Bft) NO 40 0 min 0 W/m -4,9 C -6,9 C 16,3 km/h (3 Bft)
05.03.2008 06:44 0,7 C 66 % 1023,5 hPa 0,0 l/m 13,9 km/h (3 Bft) NO 45 0 min 0 W/m -4,9 C -5,5 C 13,9 km/h (3 Bft)
05.03.2008 06:48 0,6 C 66 % 1023,5 hPa 0,0 l/m 9,1 km/h (2 Bft) NO 35 0 min 0 W/m -5,0 C -2,0 C 9,1 km/h (2 Bft)
05.03.2008 06:51 0,6 C 67 % 1023,5 hPa 0,0 l/m 11,4 km/h (2 Bft) NO 35 0 min 0 W/m -4,8 C -3,9 C 11,4 km/h (2 Bft)
05.03.2008 06:54 0,6 C 67 % 1023,5 hPa 0,0 l/m 15,3 km/h (3 Bft) NO 55 0 min 0 W/m -4,8 C -6,4 C 15,3 km/h (3 Bft)
05.03.2008 06:57 0,6 C 67 % 1023,5 hPa 0,0 l/m 6,3 km/h (2 Bft) NO 50 0 min 0 W/m -4,8 C 0,6 C 6,3 km/h (2 Bft)
05.03.2008 07:00 0,6 C 67 % 1023,5 hPa 0,0 l/m 12,1 km/h (2 Bft) NO 35 0 min 0 W/m -4,8 C -4,4 C 12,1 km/h (2 Bft)
05.03.2008 07:02 0,5 C 67 % 1023,5 hPa 0,0 l/m 11,1 km/h (2 Bft) NO 35 0 min 0 W/m -4,9 C -3,8 C 11,1 km/h (2 Bft)
05.03.2008 07:05 0,6 C 67 % 1023,5 hPa 0,0 l/m 12,5 km/h (2 Bft) NO 35 0 min 0 W/m -4,8 C -4,7 C 12,5 km/h (2 Bft)
05.03.2008 07:09 0,6 C 67 % 1023,5 hPa 0,0 l/m 11,5 km/h (2 Bft) NO 35 0 min 0 W/m -4,8 C -3,9 C 11,5 km/h (2 Bft)
05.03.2008 07:12 0,6 C 67 % 1023,5 hPa 0,0 l/m 10,2 km/h (2 Bft) NO 35 0 min 0 W/m -4,8 C -2,9 C 10,2 km/h (2 Bft)
05.03.2008 07:15 0,6 C 67 % 1023,5 hPa 0,0 l/m 11,6 km/h (2 Bft) NO 35 0 min 0 W/m -4,8 C -4,0 C 11,6 km/h (2 Bft)
05.03.2008 07:18 0,6 C 67 % 1023,5 hPa 0,0 l/m 9,7 km/h (2 Bft) NO 35 0 min 0 W/m -4,8 C -2,5 C 9,7 km/h (2 Bft)
05.03.2008 07:21 0,5 C 67 % 1024,5 hPa 0,0 l/m 16,1 km/h (3 Bft) NO 35 0 min 0 W/m -4,9 C -7,0 C 16,1 km/h (3 Bft)
05.03.2008 07:24 0,6 C 67 % 1024,5 hPa 0,0 l/m 12,3 km/h (2 Bft) N-NO 30 0 min 0 W/m -4,8 C -4,5 C 12,3 km/h (2 Bft)
05.03.2008 07:27 0,7 C 67 % 1024,5 hPa 0,0 l/m 15,8 km/h (3 Bft) N-NO 20 0 min 0 W/m -4,7 C -6,6 C 15,8 km/h (3 Bft)
05.03.2008 07:30 0,6 C 68 % 1024,5 hPa 0,0 l/m 10,1 km/h (2 Bft) NO 45 0 min 0 W/m -4,6 C -2,9 C 10,1 km/h (2 Bft)
05.03.2008 07:33 0,7 C 68 % 1024,5 hPa 0,0 l/m 10,2 km/h (2 Bft) N-NO 30 0 min 0 W/m -4,5 C -2,8 C 10,2 km/h (2 Bft)
05.03.2008 07:36 0,7 C 68 % 1024,5 hPa 0,0 l/m 10,4 km/h (2 Bft) NO 40 0 min 0 W/m -4,5 C -3,0 C 10,4 km/h (2 Bft)
05.03.2008 07:39 0,7 C 68 % 1024,5 hPa 0,0 l/m 14,5 km/h (3 Bft) N-NO 20 0 min 0 W/m -4,5 C -5,8 C 14,5 km/h (3 Bft)
05.03.2008 07:42 0,7 C 68 % 1024,5 hPa 0,0 l/m 14,7 km/h (3 Bft) NO 50 0 min 0 W/m -4,5 C -6,0 C 14,7 km/h (3 Bft)
05.03.2008 07:44 0,7 C 68 % 1024,5 hPa 0,0 l/m 8,1 km/h (2 Bft) NO 35 0 min 0 W/m -4,5 C -1,0 C 8,1 km/h (2 Bft)
05.03.2008 07:47 0,7 C 69 % 1024,5 hPa 0,0 l/m 7,2 km/h (2 Bft) N-NO 30 0 min 0 W/m -4,3 C -0,1 C 7,2 km/h (2 Bft)
05.03.2008 07:50 0,7 C 69 % 1024,5 hPa 0,0 l/m 6,1 km/h (2 Bft) N-NO 15 0 min 0 W/m -4,3 C 0,7 C 6,1 km/h (2 Bft)
05.03.2008 07:54 0,7 C 69 % 1024,5 hPa 0,0 l/m 6,8 km/h (2 Bft) N-NO 25 0 min 0 W/m -4,3 C 0,3 C 6,8 km/h (2 Bft)
05.03.2008 07:57 0,7 C 69 % 1024,5 hPa 0,0 l/m 9,3 km/h (2 Bft) N-NO 25 0 min 0 W/m -4,3 C -2,1 C 9,3 km/h (2 Bft)
05.03.2008 08:00 0,8 C 69 % 1024,5 hPa 0,0 l/m 6,2 km/h (2 Bft) N-NO 30 0 min 0 W/m -4,2 C 0,8 C 6,2 km/h (2 Bft)
05.03.2008 08:03 0,8 C 69 % 1024,5 hPa 0,0 l/m 11,2 km/h (2 Bft) N-NO 25 0 min 0 W/m -4,2 C -3,5 C 11,2 km/h (2 Bft)
05.03.2008 08:06 0,8 C 70 % 1024,5 hPa 0,0 l/m 11,2 km/h (2 Bft) N-NO 25 0 min 0 W/m -4,0 C -3,5 C 11,2 km/h (2 Bft)
05.03.2008 08:08 0,9 C 70 % 1024,5 hPa 0,0 l/m 7,9 km/h (2 Bft) N-NO 20 0 min 0 W/m -3,9 C -0,6 C 7,9 km/h (2 Bft)
05.03.2008 08:11 0,9 C 70 % 1024,5 hPa 0,0 l/m 7,9 km/h (2 Bft) N-NO 20 0 min 0 W/m -3,9 C -0,6 C 7,9 km/h (2 Bft)
05.03.2008 08:15 1,0 C 70 % 1024,5 hPa 0,0 l/m 6,7 km/h (2 Bft) N-NO 15 0 min 0 W/m -3,8 C 0,7 C 6,7 km/h (2 Bft)
05.03.2008 08:18 1,0 C 71 % 1024,5 hPa 0,0 l/m 8,3 km/h (2 Bft) N 10 0 min 0 W/m -3,7 C -0,9 C 8,3 km/h (2 Bft)
05.03.2008 08:21 1,1 C 71 % 1024,5 hPa 0,0 l/m 10,0 km/h (2 Bft) N-NO 15 0 min 0 W/m -3,6 C -2,2 C 10,0 km/h (2 Bft)
05.03.2008 08:24 1,2 C 71 % 1024,5 hPa 0,0 l/m 10,5 km/h (2 Bft) N 10 0 min 0 W/m -3,5 C -2,5 C 10,5 km/h (2 Bft)
05.03.2008 08:27 1,2 C 71 % 1024,5 hPa 0,0 l/m 6,2 km/h (2 Bft) N-NO 15 0 min 0 W/m -3,5 C 1,2 C 6,2 km/h (2 Bft)
05.03.2008 08:30 1,2 C 71 % 1024,5 hPa 0,0 l/m 2,9 km/h (1 Bft) N-NO 20 0 min 0 W/m -3,5 C 1,2 C 2,9 km/h (1 Bft)
05.03.2008 08:33 1,3 C 70 % 1024,5 hPa 0,0 l/m 7,2 km/h (2 Bft) N 5 0 min 0 W/m -3,6 C 0,5 C 7,2 km/h (2 Bft)
05.03.2008 08:36 1,4 C 70 % 1024,5 hPa 0,0 l/m 9,4 km/h (2 Bft) N 10 0 min 0 W/m -3,5 C -1,4 C 9,4 km/h (2 Bft)
05.03.2008 08:39 1,5 C 70 % 1024,5 hPa 0,0 l/m 7,4 km/h (2 Bft) N 10 0 min 0 W/m -3,4 C 0,5 C 7,4 km/h (2 Bft)
05.03.2008 08:42 1,5 C 70 % 1024,5 hPa 0,0 l/m 9,9 km/h (2 Bft) N-NO 15 0 min 0 W/m -3,4 C -1,7 C 9,9 km/h (2 Bft)
05.03.2008 08:45 1,6 C 70 % 1024,5 hPa 0,0 l/m 6,1 km/h (2 Bft) N 350 0 min 0 W/m -3,3 C 1,6 C 6,1 km/h (2 Bft)
05.03.2008 08:47 1,7 C 70 % 1025,5 hPa 0,0 l/m 5,0 km/h (1 Bft) N 355 0 min 0 W/m -3,2 C 1,7 C 5,0 km/h (1 Bft)
05.03.2008 08:51 1,7 C 70 % 1025,5 hPa 0,0 l/m 8,2 km/h (2 Bft) N 10 0 min 0 W/m -3,2 C -0,0 C 8,2 km/h (2 Bft)
05.03.2008 08:54 1,9 C 70 % 1025,5 hPa 0,0 l/m 8,8 km/h (2 Bft) N-NO 20 0 min 0 W/m -3,0 C -0,4 C 8,8 km/h (2 Bft)
05.03.2008 08:57 1,9 C 70 % 1025,5 hPa 0,0 l/m 9,6 km/h (2 Bft) N-NO 15 0 min 0 W/m -3,0 C -1,0 C 9,6 km/h (2 Bft)
05.03.2008 09:00 2,0 C 70 % 1025,5 hPa 0,0 l/m 9,8 km/h (2 Bft) N-NO 30 0 min 0 W/m -2,9 C -1,1 C 9,8 km/h (2 Bft)
05.03.2008 09:03 2,1 C 70 % 1025,5 hPa 0,0 l/m 9,8 km/h (2 Bft) N-NO 30 0 min 0 W/m -2,8 C -1,0 C 9,8 km/h (2 Bft)
05.03.2008 09:06 2,1 C 70 % 1025,5 hPa 0,0 l/m 3,9 km/h (1 Bft) N-NO 25 0 min 0 W/m -2,8 C 2,1 C 3,9 km/h (1 Bft)
05.03.2008 09:09 2,2 C 70 % 1025,5 hPa 0,0 l/m 4,0 km/h (1 Bft) N-NO 20 0 min 0 W/m -2,7 C 2,2 C 4,0 km/h (1 Bft)
05.03.2008 09:12 2,2 C 70 % 1025,5 hPa 0,0 l/m 7,8 km/h (2 Bft) N 355 0 min 0 W/m -2,7 C 0,8 C 7,8 km/h (2 Bft)
05.03.2008 09:15 2,3 C 70 % 1025,5 hPa 0,0 l/m 7,4 km/h (2 Bft) N 350 0 min 0 W/m -2,6 C 1,3 C 7,4 km/h (2 Bft)
05.03.2008 09:18 2,3 C 70 % 1025,5 hPa 0,0 l/m 9,3 km/h (2 Bft) N 350 0 min 0 W/m -2,6 C -0,4 C 9,3 km/h (2 Bft)
05.03.2008 09:21 2,4 C 69 % 1025,5 hPa 0,0 l/m 7,6 km/h (2 Bft) N 355 0 min 0 W/m -2,7 C 1,2 C 7,6 km/h (2 Bft)
05.03.2008 09:24 2,5 C 69 % 1025,5 hPa 0,0 l/m 9,8 km/h (2 Bft) N-NO 15 0 min 0 W/m -2,6 C -0,5 C 9,8 km/h (2 Bft)
05.03.2008 09:27 2,6 C 69 % 1025,5 hPa 0,0 l/m 8,3 km/h (2 Bft) N 5 0 min 0 W/m -2,5 C 0,8 C 8,3 km/h (2 Bft)
05.03.2008 09:30 2,8 C 69 % 1025,5 hPa 0,0 l/m 7,1 km/h (2 Bft) N 355 0 min 0 W/m -2,3 C 2,1 C 7,1 km/h (2 Bft)
05.03.2008 09:33 3,0 C 69 % 1025,5 hPa 0,0 l/m 8,6 km/h (2 Bft) N 360 0 min 0 W/m -2,1 C 1,0 C 8,6 km/h (2 Bft)
05.03.2008 09:36 3,1 C 68 % 1025,5 hPa 0,0 l/m 8,5 km/h (2 Bft) N 10 0 min 0 W/m -2,2 C 1,2 C 8,5 km/h (2 Bft)
05.03.2008 09:39 3,1 C 68 % 1025,5 hPa 0,0 l/m 9,6 km/h (2 Bft) N 5 0 min 0 W/m -2,2 C 0,3 C 9,6 km/h (2 Bft)
05.03.2008 09:42 3,2 C 68 % 1025,5 hPa 0,0 l/m 8,8 km/h (2 Bft) N 355 0 min 0 W/m -2,1 C 1,0 C 8,8 km/h (2 Bft)
05.03.2008 09:45 3,3 C 67 % 1025,5 hPa 0,0 l/m 12,1 km/h (2 Bft) N-NO 20 0 min 0 W/m -2,2 C -1,3 C 12,1 km/h (2 Bft)
05.03.2008 09:48 3,4 C 67 % 1025,5 hPa 0,0 l/m 14,0 km/h (3 Bft) N 5 0 min 0 W/m -2,1 C -2,3 C 14,0 km/h (3 Bft)
05.03.2008 09:51 3,5 C 67 % 1025,5 hPa 0,0 l/m 12,9 km/h (3 Bft) N 360 0 min 0 W/m -2,0 C -1,5 C 12,9 km/h (3 Bft)
05.03.2008 09:54 3,5 C 66 % 1025,5 hPa 0,0 l/m 12,6 km/h (3 Bft) N 10 0 min 0 W/m -2,2 C -1,4 C 12,6 km/h (3 Bft)
05.03.2008 09:57 3,7 C 66 % 1025,5 hPa 0,0 l/m 19,3 km/h (3 Bft) N 5 0 min 0 W/m -2,0 C -4,6 C 19,3 km/h (3 Bft)
05.03.2008 10:00 3,9 C 63 % 1025,5 hPa 0,0 l/m 27,6 km/h (5 Bft) N 5 0 min 0 W/m -2,5 C -7,2 C 27,6 km/h (5 Bft)
05.03.2008 10:03 4,1 C 60 % 1025,5 hPa 0,0 l/m 19,6 km/h (3 Bft) N-NO 25 0 min 0 W/m -3,0 C -4,2 C 19,6 km/h (3 Bft)
05.03.2008 10:06 4,3 C 59 % 1025,5 hPa 0,0 l/m 22,8 km/h (4 Bft) N-NO 15 0 min 0 W/m -3,0 C -5,1 C 22,8 km/h (4 Bft)
05.03.2008 10:09 4,5 C 60 % 1025,5 hPa 0,0 l/m 19,7 km/h (3 Bft) N 5 0 min 0 W/m -2,6 C -3,7 C 19,7 km/h (3 Bft)
05.03.2008 10:12 4,7 C 61 % 1025,5 hPa 0,0 l/m 19,7 km/h (3 Bft) N 5 0 min 0 W/m -2,2 C -3,4 C 19,7 km/h (3 Bft)
05.03.2008 10:15 4,9 C 61 % 1025,5 hPa 0,0 l/m 24,0 km/h (4 Bft) N 10 0 min 0 W/m -2,0 C -4,8 C 24,0 km/h (4 Bft)
05.03.2008 10:18 5,2 C 58 % 1025,5 hPa 0,0 l/m 22,7 km/h (4 Bft) N-NO 30 0 min 0 W/m -2,4 C -3,9 C 22,7 km/h (4 Bft)
05.03.2008 10:21 5,2 C 58 % 1025,5 hPa 0,0 l/m 22,8 km/h (4 Bft) N-NO 15 0 min 0 W/m -2,4 C -3,9 C 22,8 km/h (4 Bft)
05.03.2008 10:24 5,5 C 58 % 1025,5 hPa 0,0 l/m 23,4 km/h (4 Bft) N-NO 20 0 min 0 W/m -2,1 C -3,8 C 23,4 km/h (4 Bft)
05.03.2008 10:27 5,6 C 59 % 1025,5 hPa 0,0 l/m 20,8 km/h (4 Bft) N-NO 15 0 min 0 W/m -1,8 C -2,7 C 20,8 km/h (4 Bft)
05.03.2008 10:30 5,6 C 59 % 1025,5 hPa 0,0 l/m 19,9 km/h (4 Bft) N 10 0 min 0 W/m -1,8 C -2,4 C 19,9 km/h (4 Bft)
05.03.2008 10:33 5,5 C 59 % 1025,5 hPa 0,0 l/m 18,8 km/h (3 Bft) N 10 0 min 0 W/m -1,9 C -2,0 C 18,8 km/h (3 Bft)
05.03.2008 10:36 5,4 C 58 % 1025,5 hPa 0,0 l/m 19,6 km/h (3 Bft) N-NO 15 0 min 0 W/m -2,2 C -2,5 C 19,6 km/h (3 Bft)
05.03.2008 10:39 4,9 C 57 % 1025,5 hPa 0,0 l/m 24,3 km/h (4 Bft) N-NO 15 0 min 0 W/m -2,9 C -4,9 C 24,3 km/h (4 Bft)
05.03.2008 10:42 4,8 C 59 % 1025,5 hPa 0,0 l/m 19,3 km/h (3 Bft) N-NO 15 0 min 0 W/m -2,5 C -3,1 C 19,3 km/h (3 Bft)
05.03.2008 10:45 5,2 C 60 % 1025,5 hPa 0,0 l/m 21,5 km/h (4 Bft) N-NO 15 0 min 0 W/m -1,9 C -3,5 C 21,5 km/h (4 Bft)
05.03.2008 10:48 5,3 C 58 % 1025,5 hPa 0,0 l/m 21,5 km/h (4 Bft) N-NO 15 0 min 0 W/m -2,3 C -3,4 C 21,5 km/h (4 Bft)
05.03.2008 10:51 5,5 C 57 % 1026,5 hPa 0,0 l/m 22,7 km/h (4 Bft) N 5 0 min 0 W/m -2,3 C -3,5 C 22,7 km/h (4 Bft)
05.03.2008 10:54 5,6 C 56 % 1026,5 hPa 0,0 l/m 25,9 km/h (4 Bft) N-NO 15 0 min 0 W/m -2,5 C -4,4 C 25,9 km/h (4 Bft)
05.03.2008 10:57 5,9 C 57 % 1026,5 hPa 0,0 l/m 17,1 km/h (3 Bft) N 10 0 min 0 W/m -2,0 C -0,8 C 17,1 km/h (3 Bft)
05.03.2008 11:00 6,0 C 56 % 1026,5 hPa 0,0 l/m 26,0 km/h (4 Bft) N-NO 20 0 min 0 W/m -2,1 C -3,9 C 26,0 km/h (4 Bft)
05.03.2008 11:03 6,2 C 57 % 1025,5 hPa 0,0 l/m 21,4 km/h (4 Bft) N 5 0 min 0 W/m -1,7 C -2,1 C 21,4 km/h (4 Bft)
05.03.2008 11:06 6,4 C 56 % 1025,5 hPa 0,0 l/m 20,7 km/h (4 Bft) N 355 0 min 0 W/m -1,7 C -1,6 C 20,7 km/h (4 Bft)
05.03.2008 11:08 6,4 C 55 % 1025,5 hPa 0,0 l/m 22,7 km/h (4 Bft) N 360 0 min 0 W/m -2,0 C -2,3 C 22,7 km/h (4 Bft)
05.03.2008 11:12 6,6 C 55 % 1026,5 hPa 0,0 l/m 20,8 km/h (4 Bft) N 355 0 min 0 W/m -1,8 C -1,4 C 20,8 km/h (4 Bft)
05.03.2008 11:15 6,5 C 55 % 1026,5 hPa 0,0 l/m 17,1 km/h (3 Bft) N 5 0 min 0 W/m -1,9 C -0,1 C 17,1 km/h (3 Bft)
05.03.2008 11:18 6,5 C 54 % 1026,5 hPa 0,0 l/m 24,7 km/h (4 Bft) N 10 0 min 0 W/m -2,1 C -2,8 C 24,7 km/h (4 Bft)
05.03.2008 11:21 6,4 C 55 % 1026,5 hPa 0,0 l/m 22,8 km/h (4 Bft) N 360 0 min 0 W/m -2,0 C -2,4 C 22,8 km/h (4 Bft)
05.03.2008 11:24 6,5 C 57 % 1026,5 hPa 0,0 l/m 14,1 km/h (3 Bft) N 5 0 min 0 W/m -1,4 C 1,3 C 14,1 km/h (3 Bft)
05.03.2008 11:27 6,3 C 55 % 1026,5 hPa 0,0 l/m 19,5 km/h (3 Bft) N 5 0 min 0 W/m -2,1 C -1,3 C 19,5 km/h (3 Bft)
05.03.2008 11:30 6,2 C 56 % 1026,5 hPa 0,0 l/m 23,1 km/h (4 Bft) N 360 0 min 0 W/m -1,9 C -2,7 C 23,1 km/h (4 Bft)
05.03.2008 11:33 6,2 C 55 % 1026,5 hPa 0,0 l/m 23,1 km/h (4 Bft) N 355 0 min 0 W/m -2,2 C -2,7 C 23,1 km/h (4 Bft)
05.03.2008 11:36 6,3 C 55 % 1026,5 hPa 0,0 l/m 21,9 km/h (4 Bft) N 355 0 min 0 W/m -2,1 C -2,2 C 21,9 km/h (4 Bft)
05.03.2008 11:39 6,4 C 54 % 1026,5 hPa 0,0 l/m 22,3 km/h (4 Bft) N 350 0 min 0 W/m -2,2 C -2,2 C 22,3 km/h (4 Bft)
05.03.2008 11:42 6,6 C 55 % 1026,5 hPa 0,0 l/m 18,2 km/h (3 Bft) N-NW 340 0 min 0 W/m -1,8 C -0,4 C 18,2 km/h (3 Bft)
05.03.2008 11:45 6,8 C 55 % 1026,5 hPa 0,0 l/m 20,1 km/h (4 Bft) N-NW 335 0 min 0 W/m -1,6 C -0,9 C 20,1 km/h (4 Bft)
05.03.2008 11:48 7,1 C 52 % 1026,5 hPa 0,0 l/m 18,8 km/h (3 Bft) NW 325 0 min 0 W/m -2,1 C -0,0 C 18,8 km/h (3 Bft)
05.03.2008 11:51 7,2 C 52 % 1026,5 hPa 0,0 l/m 18,3 km/h (3 Bft) NW 310 0 min 0 W/m -2,0 C 0,3 C 18,3 km/h (3 Bft)
05.03.2008 11:54 7,2 C 52 % 1026,5 hPa 0,0 l/m 17,0 km/h (3 Bft) NW 325 0 min 0 W/m -2,0 C 0,8 C 17,0 km/h (3 Bft)
05.03.2008 11:57 7,0 C 53 % 1026,5 hPa 0,0 l/m 24,2 km/h (4 Bft) N 360 0 min 0 W/m -1,9 C -2,0 C 24,2 km/h (4 Bft)
05.03.2008 12:00 7,1 C 53 % 1026,5 hPa 0,0 l/m 19,6 km/h (3 Bft) N-NW 340 0 min 0 W/m -1,8 C -0,3 C 19,6 km/h (3 Bft)
05.03.2008 12:02 7,2 C 53 % 1026,5 hPa 0,0 l/m 25,1 km/h (4 Bft) NW 320 0 min 0 W/m -1,7 C -2,0 C 25,1 km/h (4 Bft)
05.03.2008 12:06 7,2 C 54 % 1026,5 hPa 0,0 l/m 18,2 km/h (3 Bft) N-NW 345 0 min 0 W/m -1,5 C 0,4 C 18,2 km/h (3 Bft)
05.03.2008 12:09 7,0 C 52 % 1026,5 hPa 0,0 l/m 19,5 km/h (3 Bft) N-NW 330 0 min 0 W/m -2,2 C -0,4 C 19,5 km/h (3 Bft)
05.03.2008 12:12 7,0 C 53 % 1026,5 hPa 0,0 l/m 14,8 km/h (3 Bft) NW 325 0 min 0 W/m -1,9 C 1,6 C 14,8 km/h (3 Bft)
05.03.2008 12:15 6,9 C 53 % 1026,5 hPa 0,0 l/m 14,8 km/h (3 Bft) NW 325 0 min 0 W/m -2,0 C 1,5 C 14,8 km/h (3 Bft)
05.03.2008 12:18 6,9 C 53 % 1026,5 hPa 0,0 l/m 19,3 km/h (3 Bft) N-NW 345 0 min 0 W/m -2,0 C -0,5 C 19,3 km/h (3 Bft)
05.03.2008 12:21 6,8 C 53 % 1026,5 hPa 0,0 l/m 18,8 km/h (3 Bft) N-NW 330 0 min 0 W/m -2,1 C -0,4 C 18,8 km/h (3 Bft)
05.03.2008 12:24 6,8 C 53 % 1026,5 hPa 0,0 l/m 16,3 km/h (3 Bft) N 350 0 min 0 W/m -2,1 C 0,7 C 16,3 km/h (3 Bft)
05.03.2008 12:27 6,9 C 55 % 1026,5 hPa 0,0 l/m 17,5 km/h (3 Bft) NW 320 0 min 0 W/m -1,5 C 0,3 C 17,5 km/h (3 Bft)
05.03.2008 12:30 7,0 C 55 % 1026,5 hPa 0,0 l/m 15,6 km/h (3 Bft) N-NW 340 0 min 0 W/m -1,4 C 1,2 C 15,6 km/h (3 Bft)
05.03.2008 12:33 7,0 C 55 % 1026,5 hPa 0,0 l/m 13,5 km/h (3 Bft) N-NW 335 0 min 0 W/m -1,4 C 2,2 C 13,5 km/h (3 Bft)
05.03.2008 12:35 7,2 C 53 % 1026,5 hPa 0,0 l/m 17,1 km/h (3 Bft) NW 325 0 min 0 W/m -1,7 C 0,8 C 17,1 km/h (3 Bft)
05.03.2008 12:39 7,2 C 53 % 1026,5 hPa 0,0 l/m 18,0 km/h (3 Bft) NW 320 0 min 0 W/m -1,7 C 0,4 C 18,0 km/h (3 Bft)
05.03.2008 12:42 7,2 C 53 % 1026,5 hPa 0,0 l/m 18,3 km/h (3 Bft) NW 325 0 min 0 W/m -1,7 C 0,3 C 18,3 km/h (3 Bft)
05.03.2008 12:45 7,3 C 53 % 1026,5 hPa 0,0 l/m 16,5 km/h (3 Bft) N-NW 340 0 min 0 W/m -1,6 C 1,2 C 16,5 km/h (3 Bft)
05.03.2008 12:48 7,3 C 53 % 1026,5 hPa 0,0 l/m 20,1 km/h (4 Bft) N-NW 330 0 min 0 W/m -1,6 C -0,2 C 20,1 km/h (4 Bft)
05.03.2008 12:51 7,3 C 53 % 1026,5 hPa 0,0 l/m 21,8 km/h (4 Bft) NW 320 0 min 0 W/m -1,6 C -0,8 C 21,8 km/h (4 Bft)
05.03.2008 12:54 7,3 C 53 % 1026,5 hPa 0,0 l/m 15,8 km/h (3 Bft) NW 315 0 min 0 W/m -1,6 C 1,5 C 15,8 km/h (3 Bft)
05.03.2008 12:57 7,4 C 53 % 1026,5 hPa 0,0 l/m 16,1 km/h (3 Bft) N-NW 330 0 min 0 W/m -1,5 C 1,5 C 16,1 km/h (3 Bft)
05.03.2008 13:00 7,4 C 54 % 1026,5 hPa 0,0 l/m 20,0 km/h (4 Bft) NW 325 0 min 0 W/m -1,3 C -0,1 C 20,0 km/h (4 Bft)
05.03.2008 13:03 7,4 C 54 % 1026,5 hPa 0,0 l/m 20,1 km/h (4 Bft) NW 310 0 min 0 W/m -1,3 C -0,1 C 20,1 km/h (4 Bft)
05.03.2008 13:06 7,4 C 54 % 1026,5 hPa 0,0 l/m 14,1 km/h (3 Bft) NW 320 0 min 0 W/m -1,3 C 2,4 C 14,1 km/h (3 Bft)
05.03.2008 13:09 7,5 C 55 % 1026,5 hPa 0,0 l/m 16,5 km/h (3 Bft) NW 315 0 min 0 W/m -0,9 C 1,4 C 16,5 km/h (3 Bft)
05.03.2008 13:12 7,4 C 54 % 1026,5 hPa 0,0 l/m 16,0 km/h (3 Bft) N-NW 340 0 min 0 W/m -1,3 C 1,5 C 16,0 km/h (3 Bft)
05.03.2008 13:15 7,3 C 54 % 1026,5 hPa 0,0 l/m 13,8 km/h (3 Bft) N-NW 335 0 min 0 W/m -1,4 C 2,4 C 13,8 km/h (3 Bft)
05.03.2008 13:18 7,3 C 55 % 1025,5 hPa 0,0 l/m 18,5 km/h (3 Bft) NW 320 0 min 0 W/m -1,1 C 0,4 C 18,5 km/h (3 Bft)
05.03.2008 13:21 7,2 C 55 % 1025,5 hPa 0,0 l/m 25,5 km/h (4 Bft) NW 315 0 min 0 W/m -1,2 C -2,1 C 25,5 km/h (4 Bft)
05.03.2008 13:24 7,2 C 56 % 1025,5 hPa 0,0 l/m 25,3 km/h (4 Bft) NW 315 0 min 0 W/m -1,0 C -2,0 C 25,3 km/h (4 Bft)
05.03.2008 13:27 7,2 C 55 % 1025,5 hPa 0,0 l/m 18,1 km/h (3 Bft) NW 320 0 min 0 W/m -1,2 C 0,4 C 18,1 km/h (3 Bft)
05.03.2008 13:30 7,2 C 56 % 1025,5 hPa 0,0 l/m 20,7 km/h (4 Bft) NW 310 0 min 0 W/m -1,0 C -0,6 C 20,7 km/h (4 Bft)
05.03.2008 13:33 7,2 C 57 % 1025,5 hPa 0,0 l/m 18,0 km/h (3 Bft) NW 315 0 min 0 W/m -0,7 C 0,4 C 18,0 km/h (3 Bft)
05.03.2008 13:36 7,1 C 55 % 1025,5 hPa 0,0 l/m 19,8 km/h (3 Bft) NW 315 0 min 0 W/m -1,3 C -0,4 C 19,8 km/h (3 Bft)
05.03.2008 13:39 7,0 C 56 % 1025,5 hPa 0,0 l/m 20,5 km/h (4 Bft) NW 320 0 min 0 W/m -1,2 C -0,8 C 20,5 km/h (4 Bft)
05.03.2008 13:42 7,0 C 57 % 1025,5 hPa 0,0 l/m 18,1 km/h (3 Bft) W-NW 300 0 min 0 W/m -0,9 C 0,1 C 18,1 km/h (3 Bft)
05.03.2008 13:45 6,9 C 57 % 1025,5 hPa 0,0 l/m 23,3 km/h (4 Bft) NW 315 0 min 0 W/m -1,0 C -1,8 C 23,3 km/h (4 Bft)
05.03.2008 13:48 7,0 C 57 % 1025,5 hPa 0,0 l/m 14,5 km/h (3 Bft) NW 315 0 min 0 W/m -0,9 C 1,7 C 14,5 km/h (3 Bft)
05.03.2008 13:51 6,9 C 58 % 1025,5 hPa 0,0 l/m 13,7 km/h (3 Bft) NW 305 0 min 0 W/m -0,8 C 2,0 C 13,7 km/h (3 Bft)
05.03.2008 13:54 6,8 C 57 % 1025,5 hPa 0,0 l/m 16,0 km/h (3 Bft) NW 315 0 min 0 W/m -1,1 C 0,8 C 16,0 km/h (3 Bft)
05.03.2008 13:56 6,6 C 58 % 1025,5 hPa 0,0 l/m 18,0 km/h (3 Bft) W-NW 300 0 min 0 W/m -1,1 C -0,3 C 18,0 km/h (3 Bft)
05.03.2008 14:00 6,5 C 59 % 1025,5 hPa 0,0 l/m 20,7 km/h (4 Bft) W-NW 300 0 min 0 W/m -0,9 C -1,5 C 20,7 km/h (4 Bft)
05.03.2008 14:03 6,5 C 59 % 1025,5 hPa 0,0 l/m 17,1 km/h (3 Bft) NW 310 0 min 0 W/m -0,9 C -0,1 C 17,1 km/h (3 Bft)
05.03.2008 14:06 6,5 C 59 % 1025,5 hPa 0,0 l/m 18,0 km/h (3 Bft) NW 310 0 min 0 W/m -0,9 C -0,4 C 18,0 km/h (3 Bft)
05.03.2008 14:09 6,8 C 60 % 1025,5 hPa 0,0 l/m 23,5 km/h (4 Bft) NW 305 0 min 0 W/m -0,4 C -2,0 C 23,5 km/h (4 Bft)
05.03.2008 14:12 7,0 C 59 % 1025,5 hPa 0,0 l/m 22,5 km/h (4 Bft) W-NW 300 0 min 0 W/m -0,5 C -1,5 C 22,5 km/h (4 Bft)
05.03.2008 14:14 7,2 C 59 % 1025,5 hPa 0,0 l/m 23,0 km/h (4 Bft) W-NW 300 0 min 0 W/m -0,3 C -1,4 C 23,0 km/h (4 Bft)
05.03.2008 14:18 7,2 C 57 % 1025,5 hPa 0,0 l/m 21,2 km/h (4 Bft) W-NW 295 0 min 0 W/m -0,7 C -0,8 C 21,2 km/h (4 Bft)
05.03.2008 14:21 7,0 C 57 % 1025,5 hPa 0,0 l/m 27,3 km/h (5 Bft) W-NW 285 0 min 0 W/m -0,9 C -2,9 C 27,3 km/h (5 Bft)
05.03.2008 14:24 7,2 C 58 % 1025,5 hPa 0,0 l/m 18,0 km/h (3 Bft) W-NW 295 0 min 0 W/m -0,5 C 0,4 C 18,0 km/h (3 Bft)
05.03.2008 14:27 7,2 C 59 % 1025,5 hPa 0,0 l/m 21,6 km/h (4 Bft) W-NW 285 0 min 0 W/m -0,3 C -0,9 C 21,6 km/h (4 Bft)
05.03.2008 14:30 7,4 C 58 % 1025,5 hPa 0,0 l/m 22,8 km/h (4 Bft) W-NW 295 0 min 0 W/m -0,3 C -1,0 C 22,8 km/h (4 Bft)
05.03.2008 14:33 7,5 C 56 % 1025,5 hPa 0,0 l/m 22,1 km/h (4 Bft) W-NW 295 0 min 0 W/m -0,7 C -0,7 C 22,1 km/h (4 Bft)
05.03.2008 14:36 7,6 C 57 % 1025,5 hPa 0,0 l/m 24,3 km/h (4 Bft) W-NW 285 0 min 0 W/m -0,4 C -1,2 C 24,3 km/h (4 Bft)
05.03.2008 14:39 7,6 C 57 % 1025,5 hPa 0,0 l/m 24,5 km/h (4 Bft) W-NW 285 0 min 0 W/m -0,4 C -1,3 C 24,5 km/h (4 Bft)
05.03.2008 14:42 7,5 C 56 % 1025,5 hPa 0,0 l/m 26,3 km/h (4 Bft) W-NW 290 0 min 0 W/m -0,7 C -1,9 C 26,3 km/h (4 Bft)
05.03.2008 14:45 7,3 C 57 % 1025,5 hPa 0,0 l/m 25,8 km/h (4 Bft) W-NW 290 0 min 0 W/m -0,6 C -2,1 C 25,8 km/h (4 Bft)
05.03.2008 14:48 7,4 C 58 % 1025,5 hPa 0,0 l/m 18,5 km/h (3 Bft) W-NW 285 0 min 0 W/m -0,3 C 0,5 C 18,5 km/h (3 Bft)
05.03.2008 14:51 7,5 C 57 % 1025,5 hPa 0,0 l/m 26,5 km/h (4 Bft) NW 310 0 min 0 W/m -0,5 C -2,0 C 26,5 km/h (4 Bft)
05.03.2008 14:54 7,5 C 55 % 1025,5 hPa 0,0 l/m 27,7 km/h (5 Bft) W-NW 295 0 min 0 W/m -0,9 C -2,3 C 27,7 km/h (5 Bft)
05.03.2008 14:57 7,3 C 56 % 1025,5 hPa 0,0 l/m 22,5 km/h (4 Bft) W-NW 295 0 min 0 W/m -0,9 C -1,1 C 22,5 km/h (4 Bft)
05.03.2008 15:00 7,3 C 57 % 1025,5 hPa 0,0 l/m 25,9 km/h (4 Bft) NW 310 0 min 0 W/m -0,6 C -2,1 C 25,9 km/h (4 Bft)
05.03.2008 15:02 7,2 C 55 % 1025,5 hPa 0,0 l/m 30,0 km/h (5 Bft) W-NW 290 0 min 0 W/m -1,2 C -3,3 C 30,0 km/h (5 Bft)
05.03.2008 15:06 7,1 C 56 % 1025,5 hPa 0,0 l/m 25,0 km/h (4 Bft) W-NW 290 0 min 0 W/m -1,1 C -2,1 C 25,0 km/h (4 Bft)
05.03.2008 15:09 7,0 C 57 % 1025,5 hPa 0,0 l/m 22,9 km/h (4 Bft) W-NW 295 0 min 0 W/m -0,9 C -1,6 C 22,9 km/h (4 Bft)
05.03.2008 15:12 6,8 C 57 % 1025,5 hPa 0,0 l/m 30,7 km/h (5 Bft) W-NW 300 0 min 0 W/m -1,1 C -4,0 C 30,7 km/h (5 Bft)
05.03.2008 15:15 6,6 C 58 % 1025,5 hPa 0,0 l/m 27,0 km/h (5 Bft) W-NW 295 0 min 0 W/m -1,1 C -3,3 C 27,0 km/h (5 Bft)
05.03.2008 15:18 6,5 C 58 % 1025,5 hPa 0,0 l/m 19,6 km/h (3 Bft) NW 305 0 min 0 W/m -1,2 C -1,1 C 19,6 km/h (3 Bft)
05.03.2008 15:21 6,5 C 58 % 1025,5 hPa 0,0 l/m 21,5 km/h (4 Bft) NW 305 0 min 0 W/m -1,2 C -1,8 C 21,5 km/h (4 Bft)
05.03.2008 15:24 6,5 C 59 % 1025,5 hPa 0,0 l/m 24,7 km/h (4 Bft) W-NW 295 0 min 0 W/m -0,9 C -2,8 C 24,7 km/h (4 Bft)
05.03.2008 15:27 6,5 C 59 % 1025,5 hPa 0,0 l/m 22,6 km/h (4 Bft) W-NW 290 0 min 0 W/m -0,9 C -2,2 C 22,6 km/h (4 Bft)
05.03.2008 15:30 6,4 C 59 % 1025,5 hPa 0,0 l/m 23,6 km/h (4 Bft) W-NW 295 0 min 0 W/m -1,0 C -2,6 C 23,6 km/h (4 Bft)
05.03.2008 15:33 6,3 C 60 % 1025,5 hPa 0,0 l/m 27,1 km/h (5 Bft) W-NW 300 0 min 0 W/m -0,9 C -3,8 C 27,1 km/h (5 Bft)
05.03.2008 15:36 6,2 C 59 % 1025,5 hPa 0,0 l/m 23,8 km/h (4 Bft) W-NW 295 0 min 0 W/m -1,2 C -2,9 C 23,8 km/h (4 Bft)
05.03.2008 15:39 6,0 C 59 % 1025,5 hPa 0,0 l/m 27,0 km/h (5 Bft) W-NW 300 0 min 0 W/m -1,4 C -4,2 C 27,0 km/h (5 Bft)
05.03.2008 15:42 6,0 C 60 % 1025,5 hPa 0,0 l/m 25,2 km/h (4 Bft) W-NW 290 0 min 0 W/m -1,2 C -3,6 C 25,2 km/h (4 Bft)
05.03.2008 15:45 6,0 C 59 % 1025,5 hPa 0,0 l/m 23,3 km/h (4 Bft) W-NW 300 0 min 0 W/m -1,4 C -3,0 C 23,3 km/h (4 Bft)
05.03.2008 15:48 6,0 C 60 % 1025,5 hPa 0,0 l/m 22,1 km/h (4 Bft) W-NW 285 0 min 0 W/m -1,2 C -2,6 C 22,1 km/h (4 Bft)
05.03.2008 15:51 6,0 C 60 % 1024,5 hPa 0,0 l/m 17,7 km/h (3 Bft) W-NW 295 0 min 0 W/m -1,2 C -1,0 C 17,7 km/h (3 Bft)
05.03.2008 15:54 5,9 C 60 % 1024,5 hPa 0,0 l/m 24,1 km/h (4 Bft) W-NW 285 0 min 0 W/m -1,3 C -3,4 C 24,1 km/h (4 Bft)
05.03.2008 15:57 6,0 C 61 % 1024,5 hPa 0,0 l/m 25,3 km/h (4 Bft) W-NW 285 0 min 0 W/m -0,9 C -3,7 C 25,3 km/h (4 Bft)
05.03.2008 16:00 5,9 C 60 % 1024,5 hPa 0,0 l/m 25,8 km/h (4 Bft) NW 305 0 min 0 W/m -1,3 C -4,0 C 25,8 km/h (4 Bft)
05.03.2008 16:03 5,9 C 60 % 1024,5 hPa 0,0 l/m 23,1 km/h (4 Bft) W-NW 295 0 min 0 W/m -1,3 C -3,1 C 23,1 km/h (4 Bft)
05.03.2008 16:06 5,9 C 61 % 1024,5 hPa 0,0 l/m 25,6 km/h (4 Bft) W-NW 300 0 min 0 W/m -1,0 C -3,9 C 25,6 km/h (4 Bft)
05.03.2008 16:09 5,8 C 61 % 1024,5 hPa 0,0 l/m 20,1 km/h (4 Bft) W-NW 295 0 min 0 W/m -1,1 C -2,2 C 20,1 km/h (4 Bft)
05.03.2008 16:12 5,8 C 62 % 1024,5 hPa 0,0 l/m 16,3 km/h (3 Bft) W-NW 285 0 min 0 W/m -0,9 C -0,6 C 16,3 km/h (3 Bft)
05.03.2008 16:15 5,8 C 63 % 1024,5 hPa 0,0 l/m 24,1 km/h (4 Bft) W-NW 290 0 min 0 W/m -0,7 C -3,6 C 24,1 km/h (4 Bft)
05.03.2008 16:18 5,8 C 63 % 1024,5 hPa 0,0 l/m 24,5 km/h (4 Bft) W-NW 285 0 min 0 W/m -0,7 C -3,7 C 24,5 km/h (4 Bft)
05.03.2008 16:21 5,6 C 63 % 1024,5 hPa 0,0 l/m 19,8 km/h (3 Bft) W 275 0 min 0 W/m -0,9 C -2,3 C 19,8 km/h (3 Bft)
05.03.2008 16:24 5,6 C 63 % 1024,5 hPa 0,0 l/m 19,8 km/h (3 Bft) W 275 0 min 0 W/m -0,9 C -2,3 C 19,8 km/h (3 Bft)
05.03.2008 16:27 5,6 C 63 % 1024,5 hPa 0,0 l/m 24,0 km/h (4 Bft) W-NW 285 0 min 0 W/m -0,9 C -3,8 C 24,0 km/h (4 Bft)
05.03.2008 16:30 5,6 C 63 % 1024,5 hPa 0,0 l/m 25,7 km/h (4 Bft) W-NW 295 0 min 0 W/m -0,9 C -4,3 C 25,7 km/h (4 Bft)
05.03.2008 16:33 5,5 C 63 % 1024,5 hPa 0,0 l/m 20,0 km/h (4 Bft) W-NW 295 0 min 0 W/m -1,0 C -2,5 C 20,0 km/h (4 Bft)
05.03.2008 16:36 5,5 C 63 % 1024,5 hPa 0,0 l/m 20,0 km/h (4 Bft) W-NW 295 0 min 0 W/m -1,0 C -2,5 C 20,0 km/h (4 Bft)
05.03.2008 16:39 5,4 C 63 % 1024,5 hPa 0,0 l/m 25,6 km/h (4 Bft) W-NW 285 0 min 0 W/m -1,1 C -4,6 C 25,6 km/h (4 Bft)
05.03.2008 16:42 5,4 C 63 % 1024,5 hPa 0,0 l/m 18,6 km/h (3 Bft) W 280 0 min 0 W/m -1,1 C -2,1 C 18,6 km/h (3 Bft)
05.03.2008 16:45 5,4 C 63 % 1024,5 hPa 0,0 l/m 21,8 km/h (4 Bft) W 260 0 min 0 W/m -1,1 C -3,3 C 21,8 km/h (4 Bft)
05.03.2008 16:48 5,4 C 64 % 1024,5 hPa 0,0 l/m 19,1 km/h (3 Bft) W 270 0 min 0 W/m -0,9 C -2,3 C 19,1 km/h (3 Bft)
05.03.2008 16:51 5,4 C 63 % 1024,5 hPa 0,0 l/m 22,6 km/h (4 Bft) W-NW 285 0 min 0 W/m -1,1 C -3,6 C 22,6 km/h (4 Bft)
05.03.2008 16:54 5,3 C 63 % 1024,5 hPa 0,0 l/m 23,8 km/h (4 Bft) W 275 0 min 0 W/m -1,2 C -4,2 C 23,8 km/h (4 Bft)
05.03.2008 16:57 5,3 C 64 % 1024,5 hPa 0,0 l/m 22,3 km/h (4 Bft) W-NW 285 0 min 0 W/m -0,9 C -3,6 C 22,3 km/h (4 Bft)
05.03.2008 17:00 5,2 C 64 % 1024,5 hPa 0,0 l/m 23,3 km/h (4 Bft) W-NW 285 0 min 0 W/m -1,0 C -4,1 C 23,3 km/h (4 Bft)
05.03.2008 17:03 5,2 C 64 % 1024,5 hPa 0,0 l/m 19,5 km/h (3 Bft) W-NW 290 0 min 0 W/m -1,0 C -2,7 C 19,5 km/h (3 Bft)
05.03.2008 17:06 5,2 C 63 % 1024,5 hPa 0,0 l/m 29,5 km/h (5 Bft) W-NW 285 0 min 0 W/m -1,3 C -6,0 C 29,5 km/h (5 Bft)
05.03.2008 17:09 5,2 C 65 % 1024,5 hPa 0,0 l/m 25,3 km/h (4 Bft) W 275 0 min 0 W/m -0,8 C -4,8 C 25,3 km/h (4 Bft)
05.03.2008 17:12 5,2 C 65 % 1024,5 hPa 0,0 l/m 22,9 km/h (4 Bft) W 275 0 min 0 W/m -0,8 C -4,0 C 22,9 km/h (4 Bft)
05.03.2008 17:15 5,2 C 65 % 1024,5 hPa 0,0 l/m 19,5 km/h (3 Bft) W-NW 285 0 min 0 W/m -0,8 C -2,7 C 19,5 km/h (3 Bft)
05.03.2008 17:18 5,1 C 66 % 1024,5 hPa 0,0 l/m 20,3 km/h (4 Bft) W-NW 290 0 min 0 W/m -0,7 C -3,2 C 20,3 km/h (4 Bft)
05.03.2008 17:21 5,1 C 66 % 1024,5 hPa 0,0 l/m 17,2 km/h (3 Bft) W-NW 295 0 min 0 W/m -0,7 C -1,9 C 17,2 km/h (3 Bft)
05.03.2008 17:24 5,1 C 65 % 1024,5 hPa 0,0 l/m 24,0 km/h (4 Bft) W 280 0 min 0 W/m -0,9 C -4,5 C 24,0 km/h (4 Bft)
05.03.2008 17:27 5,1 C 65 % 1024,5 hPa 0,0 l/m 19,6 km/h (3 Bft) W-NW 285 0 min 0 W/m -0,9 C -2,9 C 19,6 km/h (3 Bft)
05.03.2008 17:30 4,9 C 65 % 1024,5 hPa 0,0 l/m 22,8 km/h (4 Bft) W 275 0 min 0 W/m -1,1 C -4,3 C 22,8 km/h (4 Bft)
05.03.2008 17:33 5,1 C 64 % 1024,5 hPa 0,0 l/m 25,1 km/h (4 Bft) W 280 0 min 0 W/m -1,1 C -4,8 C 25,1 km/h (4 Bft)
05.03.2008 17:36 5,1 C 66 % 1024,5 hPa 0,0 l/m 20,2 km/h (4 Bft) W 280 0 min 0 W/m -0,7 C -3,1 C 20,2 km/h (4 Bft)
05.03.2008 17:39 5,1 C 66 % 1024,5 hPa 0,0 l/m 22,4 km/h (4 Bft) W 280 0 min 0 W/m -0,7 C -3,9 C 22,4 km/h (4 Bft)
05.03.2008 17:42 5,1 C 68 % 1024,5 hPa 0,0 l/m 22,4 km/h (4 Bft) W 280 0 min 0 W/m -0,3 C -3,9 C 22,4 km/h (4 Bft)
05.03.2008 17:45 4,9 C 69 % 1024,5 hPa 0,0 l/m 18,6 km/h (3 Bft) W 265 0 min 0 W/m -0,3 C -2,7 C 18,6 km/h (3 Bft)
05.03.2008 17:48 4,9 C 69 % 1023,5 hPa 0,0 l/m 22,7 km/h (4 Bft) W 260 0 min 0 W/m -0,3 C -4,3 C 22,7 km/h (4 Bft)
05.03.2008 17:51 4,8 C 69 % 1023,5 hPa 0,0 l/m 18,1 km/h (3 Bft) W 270 0 min 0 W/m -0,4 C -2,6 C 18,1 km/h (3 Bft)
05.03.2008 17:54 4,8 C 68 % 1023,5 hPa 0,0 l/m 34,1 km/h (5 Bft) W 275 0 min 0 W/m -0,6 C -7,6 C 34,1 km/h (5 Bft)
05.03.2008 17:57 4,7 C 67 % 1023,5 hPa 0,0 l/m 26,2 km/h (4 Bft) W 275 0 min 0 W/m -0,9 C -5,7 C 26,2 km/h (4 Bft)
05.03.2008 18:00 4,7 C 67 % 1023,5 hPa 0,0 l/m 21,6 km/h (4 Bft) W 270 0 min 0 W/m -0,9 C -4,2 C 21,6 km/h (4 Bft)
05.03.2008 18:03 4,7 C 67 % 1023,5 hPa 0,0 l/m 25,9 km/h (4 Bft) W 270 0 min 0 W/m -0,9 C -5,6 C 25,9 km/h (4 Bft)
05.03.2008 18:06 4,7 C 68 % 1023,5 hPa 0,0 l/m 25,9 km/h (4 Bft) W 270 0 min 0 W/m -0,7 C -5,6 C 25,9 km/h (4 Bft)
05.03.2008 18:09 4,7 C 69 % 1023,5 hPa 0,0 l/m 23,6 km/h (4 Bft) W 265 0 min 0 W/m -0,5 C -4,9 C 23,6 km/h (4 Bft)
05.03.2008 18:12 4,6 C 68 % 1023,5 hPa 0,0 l/m 27,5 km/h (5 Bft) W 270 0 min 0 W/m -0,8 C -6,2 C 27,5 km/h (5 Bft)
05.03.2008 18:15 4,6 C 68 % 1023,5 hPa 0,0 l/m 28,5 km/h (5 Bft) W 275 0 min 0 W/m -0,8 C -6,5 C 28,5 km/h (5 Bft)
05.03.2008 18:18 4,6 C 68 % 1023,5 hPa 0,0 l/m 26,0 km/h (4 Bft) W 280 0 min 0 W/m -0,8 C -5,8 C 26,0 km/h (4 Bft)
05.03.2008 18:21 4,6 C 70 % 1023,5 hPa 0,0 l/m 19,2 km/h (3 Bft) W 265 0 min 0 W/m -0,4 C -3,4 C 19,2 km/h (3 Bft)
05.03.2008 18:24 4,5 C 70 % 1023,5 hPa 0,0 l/m 18,8 km/h (3 Bft) W 270 0 min 0 W/m -0,5 C -3,3 C 18,8 km/h (3 Bft)
05.03.2008 18:27 4,5 C 71 % 1023,5 hPa 0,0 l/m 22,1 km/h (4 Bft) W 260 0 min 0 W/m -0,3 C -4,6 C 22,1 km/h (4 Bft)
05.03.2008 18:30 4,5 C 71 % 1023,5 hPa 0,0 l/m 23,4 km/h (4 Bft) W 260 0 min 0 W/m -0,3 C -5,1 C 23,4 km/h (4 Bft)
05.03.2008 18:33 4,5 C 71 % 1023,5 hPa 0,0 l/m 23,1 km/h (4 Bft) W-SW 255 0 min 0 W/m -0,3 C -5,0 C 23,1 km/h (4 Bft)
05.03.2008 18:36 4,4 C 71 % 1023,5 hPa 0,0 l/m 25,6 km/h (4 Bft) W 260 0 min 0 W/m -0,4 C -5,9 C 25,6 km/h (4 Bft)
05.03.2008 18:39 4,4 C 71 % 1023,5 hPa 0,0 l/m 19,5 km/h (3 Bft) W 270 0 min 0 W/m -0,4 C -3,7 C 19,5 km/h (3 Bft)
05.03.2008 18:42 4,4 C 71 % 1023,5 hPa 0,0 l/m 21,5 km/h (4 Bft) W 265 0 min 0 W/m -0,4 C -4,5 C 21,5 km/h (4 Bft)
05.03.2008 18:45 4,4 C 71 % 1023,5 hPa 0,0 l/m 26,6 km/h (4 Bft) W 265 0 min 0 W/m -0,4 C -6,3 C 26,6 km/h (4 Bft)
05.03.2008 18:48 4,3 C 71 % 1023,5 hPa 0,0 l/m 21,4 km/h (4 Bft) W 265 0 min 0 W/m -0,5 C -4,6 C 21,4 km/h (4 Bft)
05.03.2008 18:51 4,3 C 71 % 1023,5 hPa 0,0 l/m 28,0 km/h (5 Bft) W 265 0 min 0 W/m -0,5 C -6,8 C 28,0 km/h (5 Bft)
05.03.2008 18:54 4,4 C 71 % 1023,5 hPa 0,0 l/m 31,0 km/h (5 Bft) W 265 0 min 0 W/m -0,4 C -7,5 C 31,0 km/h (5 Bft)
05.03.2008 18:57 4,3 C 71 % 1023,5 hPa 0,0 l/m 22,8 km/h (4 Bft) W 270 0 min 0 W/m -0,5 C -5,1 C 22,8 km/h (4 Bft)
05.03.2008 19:00 4,3 C 71 % 1023,5 hPa 0,0 l/m 23,6 km/h (4 Bft) W 270 0 min 0 W/m -0,5 C -5,4 C 23,6 km/h (4 Bft)
05.03.2008 19:03 4,3 C 71 % 1023,5 hPa 0,0 l/m 27,4 km/h (5 Bft) W-SW 255 0 min 0 W/m -0,5 C -6,6 C 27,4 km/h (5 Bft)
05.03.2008 19:06 4,3 C 72 % 1023,5 hPa 0,0 l/m 20,8 km/h (4 Bft) W 265 0 min 0 W/m -0,3 C -4,4 C 20,8 km/h (4 Bft)
05.03.2008 19:09 4,3 C 71 % 1023,5 hPa 0,0 l/m 25,5 km/h (4 Bft) W 260 0 min 0 W/m -0,5 C -6,1 C 25,5 km/h (4 Bft)
05.03.2008 19:12 4,3 C 71 % 1023,5 hPa 0,0 l/m 30,7 km/h (5 Bft) W 260 0 min 0 W/m -0,5 C -7,5 C 30,7 km/h (5 Bft)
05.03.2008 19:15 4,3 C 71 % 1023,5 hPa 0,0 l/m 22,8 km/h (4 Bft) W 260 0 min 0 W/m -0,5 C -5,1 C 22,8 km/h (4 Bft)
05.03.2008 19:17 4,3 C 70 % 1023,5 hPa 0,0 l/m 22,8 km/h (4 Bft) W 260 0 min 0 W/m -0,7 C -5,1 C 22,8 km/h (4 Bft)
05.03.2008 19:21 4,3 C 70 % 1023,5 hPa 0,0 l/m 26,5 km/h (4 Bft) W-SW 255 0 min 0 W/m -0,7 C -6,4 C 26,5 km/h (4 Bft)
05.03.2008 19:24 4,3 C 70 % 1023,5 hPa 0,0 l/m 26,0 km/h (4 Bft) W 260 0 min 0 W/m -0,7 C -6,2 C 26,0 km/h (4 Bft)
05.03.2008 19:27 4,3 C 70 % 1023,5 hPa 0,0 l/m 28,1 km/h (5 Bft) W-SW 255 0 min 0 W/m -0,7 C -6,8 C 28,1 km/h (5 Bft)
05.03.2008 19:30 4,3 C 71 % 1022,5 hPa 0,0 l/m 29,7 km/h (5 Bft) W 265 0 min 0 W/m -0,5 C -7,3 C 29,7 km/h (5 Bft)
05.03.2008 19:33 4,3 C 70 % 1022,5 hPa 0,0 l/m 30,2 km/h (5 Bft) W-SW 255 0 min 0 W/m -0,7 C -7,4 C 30,2 km/h (5 Bft)
05.03.2008 19:36 4,3 C 71 % 1022,5 hPa 0,0 l/m 28,0 km/h (5 Bft) W-SW 255 0 min 0 W/m -0,5 C -6,8 C 28,0 km/h (5 Bft)
05.03.2008 19:39 4,3 C 71 % 1022,5 hPa 0,0 l/m 28,1 km/h (5 Bft) W-SW 255 0 min 0 W/m -0,5 C -6,8 C 28,1 km/h (5 Bft)
05.03.2008 19:42 4,3 C 71 % 1022,5 hPa 0,0 l/m 30,7 km/h (5 Bft) W 260 0 min 0 W/m -0,5 C -7,5 C 30,7 km/h (5 Bft)
05.03.2008 19:45 4,3 C 71 % 1022,5 hPa 0,0 l/m 29,1 km/h (5 Bft) W-SW 255 0 min 0 W/m -0,5 C -7,1 C 29,1 km/h (5 Bft)
05.03.2008 19:48 4,3 C 72 % 1022,5 hPa 0,0 l/m 30,5 km/h (5 Bft) W 260 0 min 0 W/m -0,3 C -7,5 C 30,5 km/h (5 Bft)
05.03.2008 19:51 4,3 C 72 % 1022,5 hPa 0,0 l/m 27,8 km/h (5 Bft) W 260 0 min 0 W/m -0,3 C -6,8 C 27,8 km/h (5 Bft)
05.03.2008 19:54 4,2 C 73 % 1022,5 hPa 0,0 l/m 25,5 km/h (4 Bft) W 260 0 min 0 W/m -0,2 C -6,2 C 25,5 km/h (4 Bft)
05.03.2008 19:57 4,2 C 72 % 1022,5 hPa 0,0 l/m 29,4 km/h (5 Bft) W-SW 250 0 min 0 W/m -0,4 C -7,3 C 29,4 km/h (5 Bft)
05.03.2008 20:00 4,2 C 72 % 1022,5 hPa 0,0 l/m 35,1 km/h (5 Bft) W-SW 255 0 min 0 W/m -0,4 C -8,7 C 35,1 km/h (5 Bft)
05.03.2008 20:03 4,2 C 72 % 1022,5 hPa 0,0 l/m 33,0 km/h (5 Bft) W-SW 250 0 min 0 W/m -0,4 C -8,3 C 33,0 km/h (5 Bft)
05.03.2008 20:06 4,2 C 72 % 1022,5 hPa 0,0 l/m 26,3 km/h (4 Bft) W 260 0 min 0 W/m -0,4 C -6,4 C 26,3 km/h (4 Bft)
05.03.2008 20:09 4,2 C 72 % 1022,5 hPa 0,0 l/m 33,7 km/h (5 Bft) W-SW 255 0 min 0 W/m -0,4 C -8,4 C 33,7 km/h (5 Bft)
05.03.2008 20:12 4,2 C 73 % 1022,5 hPa 0,0 l/m 31,1 km/h (5 Bft) W-SW 255 0 min 0 W/m -0,2 C -7,8 C 31,1 km/h (5 Bft)
05.03.2008 20:15 4,2 C 73 % 1022,5 hPa 0,0 l/m 31,1 km/h (5 Bft) W-SW 255 0 min 0 W/m -0,2 C -7,8 C 31,1 km/h (5 Bft)
05.03.2008 20:18 4,2 C 73 % 1022,5 hPa 0,0 l/m 31,1 km/h (5 Bft) W-SW 255 0 min 0 W/m -0,2 C -7,8 C 31,1 km/h (5 Bft)
05.03.2008 20:21 4,2 C 73 % 1022,5 hPa 0,0 l/m 35,0 km/h (5 Bft) W-SW 255 0 min 0 W/m -0,2 C -8,7 C 35,0 km/h (5 Bft)
05.03.2008 20:23 4,2 C 73 % 1022,5 hPa 0,0 l/m 36,5 km/h (5 Bft) W-SW 255 0 min 0 W/m -0,2 C -9,0 C 36,5 km/h (5 Bft)
05.03.2008 20:27 4,2 C 73 % 1022,5 hPa 0,0 l/m 35,5 km/h (5 Bft) W-SW 250 0 min 0 W/m -0,2 C -8,8 C 35,5 km/h (5 Bft)
05.03.2008 20:30 4,3 C 73 % 1022,5 hPa 0,0 l/m 35,2 km/h (5 Bft) W-SW 250 0 min 0 W/m -0,1 C -8,6 C 35,2 km/h (5 Bft)
05.03.2008 20:33 4,3 C 73 % 1022,5 hPa 0,0 l/m 35,2 km/h (5 Bft) W-SW 250 0 min 0 W/m -0,1 C -8,6 C 35,2 km/h (5 Bft)
05.03.2008 20:36 4,3 C 73 % 1022,5 hPa 0,0 l/m 35,4 km/h (5 Bft) W-SW 255 0 min 0 W/m -0,1 C -8,7 C 35,4 km/h (5 Bft)
05.03.2008 20:39 4,3 C 73 % 1022,5 hPa 0,0 l/m 35,8 km/h (5 Bft) W 260 0 min 0 W/m -0,1 C -8,7 C 35,8 km/h (5 Bft)
05.03.2008 20:42 4,3 C 73 % 1021,5 hPa 0,0 l/m 36,0 km/h (5 Bft) W 260 0 min 0 W/m -0,1 C -8,8 C 36,0 km/h (5 Bft)
05.03.2008 20:45 4,3 C 73 % 1021,5 hPa 0,0 l/m 35,4 km/h (5 Bft) W 260 0 min 0 W/m -0,1 C -8,7 C 35,4 km/h (5 Bft)
05.03.2008 20:48 4,3 C 73 % 1021,5 hPa 0,0 l/m 34,8 km/h (5 Bft) W 265 0 min 0 W/m -0,1 C -8,5 C 34,8 km/h (5 Bft)
05.03.2008 20:50 4,3 C 74 % 1021,5 hPa 0,0 l/m 33,5 km/h (5 Bft) W-SW 255 0 min 0 W/m 0,1 C -8,2 C 33,5 km/h (5 Bft)
05.03.2008 20:54 4,4 C 73 % 1021,5 hPa 0,0 l/m 34,3 km/h (5 Bft) W-SW 250 0 min 0 W/m -0,0 C -8,3 C 34,3 km/h (5 Bft)
05.03.2008 20:57 4,4 C 73 % 1021,5 hPa 0,0 l/m 42,1 km/h (6 Bft) W 265 0 min 0 W/m -0,0 C -9,8 C 42,1 km/h (6 Bft)
05.03.2008 21:00 4,4 C 73 % 1021,5 hPa 0,0 l/m 33,0 km/h (5 Bft) W 270 0 min 0 W/m -0,0 C -8,0 C 33,0 km/h (5 Bft)
05.03.2008 21:03 4,4 C 74 % 1021,5 hPa 0,0 l/m 34,4 km/h (5 Bft) W-SW 250 0 min 0 W/m 0,2 C -8,3 C 34,4 km/h (5 Bft)
05.03.2008 21:05 4,4 C 74 % 1021,5 hPa 0,0 l/m 36,7 km/h (5 Bft) W 260 0 min 0 W/m 0,2 C -8,8 C 36,7 km/h (5 Bft)
05.03.2008 21:09 4,4 C 75 % 1021,5 hPa 0,0 l/m 37,5 km/h (5 Bft) W 260 0 min 0 W/m 0,4 C -8,9 C 37,5 km/h (5 Bft)
05.03.2008 21:12 4,4 C 75 % 1021,5 hPa 0,0 l/m 40,0 km/h (6 Bft) W-SW 250 0 min 0 W/m 0,4 C -9,4 C 40,0 km/h (6 Bft)
05.03.2008 21:15 4,4 C 74 % 1021,5 hPa 0,0 l/m 34,4 km/h (5 Bft) W 265 0 min 0 W/m 0,2 C -8,3 C 34,4 km/h (5 Bft)
05.03.2008 21:18 4,4 C 75 % 1021,5 hPa 0,0 l/m 38,5 km/h (6 Bft) W 260 0 min 0 W/m 0,4 C -9,1 C 38,5 km/h (6 Bft)
05.03.2008 21:21 4,4 C 75 % 1021,5 hPa 0,0 l/m 44,4 km/h (6 Bft) W-SW 255 0 min 0 W/m 0,4 C -10,1 C 44,4 km/h (6 Bft)
05.03.2008 21:24 4,4 C 74 % 1021,5 hPa 0,0 l/m 33,8 km/h (5 Bft) W-SW 255 0 min 0 W/m 0,2 C -8,2 C 33,8 km/h (5 Bft)
05.03.2008 21:27 4,4 C 75 % 1021,5 hPa 0,0 l/m 33,1 km/h (5 Bft) W 265 0 min 0 W/m 0,4 C -8,0 C 33,1 km/h (5 Bft)
05.03.2008 21:30 4,4 C 75 % 1021,5 hPa 0,0 l/m 37,2 km/h (5 Bft) W 260 0 min 0 W/m 0,4 C -8,9 C 37,2 km/h (5 Bft)
05.03.2008 21:32 4,4 C 75 % 1021,5 hPa 0,0 l/m 40,8 km/h (6 Bft) W 265 0 min 0 W/m 0,4 C -9,6 C 40,8 km/h (6 Bft)
05.03.2008 21:36 4,4 C 75 % 1020,5 hPa 0,0 l/m 33,9 km/h (5 Bft) W 260 0 min 0 W/m 0,4 C -8,2 C 33,9 km/h (5 Bft)
05.03.2008 21:39 4,3 C 75 % 1020,5 hPa 0,0 l/m 43,9 km/h (6 Bft) W-SW 250 0 min 0 W/m 0,3 C -10,2 C 43,9 km/h (6 Bft)
05.03.2008 21:42 4,3 C 75 % 1020,5 hPa 0,0 l/m 38,9 km/h (6 Bft) W-SW 255 0 min 0 W/m 0,3 C -9,4 C 38,9 km/h (6 Bft)
05.03.2008 21:45 4,3 C 75 % 1020,5 hPa 0,0 l/m 43,2 km/h (6 Bft) W 260 0 min 0 W/m 0,3 C -10,1 C 43,2 km/h (6 Bft)
05.03.2008 21:48 4,3 C 75 % 1020,5 hPa 0,0 l/m 39,7 km/h (6 Bft) W-SW 255 0 min 0 W/m 0,3 C -9,5 C 39,7 km/h (6 Bft)
05.03.2008 21:51 4,3 C 75 % 1020,5 hPa 0,0 l/m 48,1 km/h (6 Bft) W 265 0 min 0 W/m 0,3 C -10,8 C 48,1 km/h (6 Bft)
05.03.2008 21:54 4,3 C 75 % 1020,5 hPa 0,0 l/m 40,0 km/h (6 Bft) W 265 0 min 0 W/m 0,3 C -9,6 C 40,0 km/h (6 Bft)
05.03.2008 21:57 4,3 C 75 % 1020,5 hPa 0,0 l/m 42,5 km/h (6 Bft) W 260 0 min 0 W/m 0,3 C -10,0 C 42,5 km/h (6 Bft)
05.03.2008 21:59 4,3 C 75 % 1020,5 hPa 0,0 l/m 38,7 km/h (6 Bft) W-SW 255 0 min 0 W/m 0,3 C -9,3 C 38,7 km/h (6 Bft)
05.03.2008 22:03 4,3 C 75 % 1020,5 hPa 0,0 l/m 38,7 km/h (6 Bft) W-SW 255 0 min 0 W/m 0,3 C -9,3 C 38,7 km/h (6 Bft)
05.03.2008 22:06 4,3 C 75 % 1020,5 hPa 0,0 l/m 43,3 km/h (6 Bft) W 260 0 min 0 W/m 0,3 C -10,1 C 43,3 km/h (6 Bft)
05.03.2008 22:09 4,3 C 75 % 1020,5 hPa 0,0 l/m 43,3 km/h (6 Bft) W 260 0 min 0 W/m 0,3 C -10,1 C 43,3 km/h (6 Bft)
05.03.2008 22:12 4,4 C 75 % 1020,5 hPa 0,0 l/m 48,1 km/h (6 Bft) W 260 0 min 0 W/m 0,4 C -10,7 C 48,1 km/h (6 Bft)
05.03.2008 22:15 4,4 C 75 % 1020,5 hPa 0,0 l/m 42,9 km/h (6 Bft) W-SW 255 0 min 0 W/m 0,4 C -9,9 C 42,9 km/h (6 Bft)
05.03.2008 22:18 4,4 C 75 % 1020,5 hPa 0,0 l/m 48,3 km/h (6 Bft) W 270 0 min 0 W/m 0,4 C -10,7 C 48,3 km/h (6 Bft)
05.03.2008 22:21 4,4 C 75 % 1020,5 hPa 0,0 l/m 45,2 km/h (6 Bft) W 265 0 min 0 W/m 0,4 C -10,3 C 45,2 km/h (6 Bft)
05.03.2008 22:24 4,4 C 75 % 1020,5 hPa 0,0 l/m 40,5 km/h (6 Bft) W 270 0 min 0 W/m 0,4 C -9,5 C 40,5 km/h (6 Bft)
05.03.2008 22:27 4,4 C 76 % 1020,5 hPa 0,0 l/m 41,4 km/h (6 Bft) W 260 0 min 0 W/m 0,5 C -9,7 C 41,4 km/h (6 Bft)
05.03.2008 22:30 4,4 C 77 % 1020,5 hPa 0,0 l/m 43,8 km/h (6 Bft) W 260 0 min 0 W/m 0,7 C -10,0 C 43,8 km/h (6 Bft)
05.03.2008 22:33 4,4 C 77 % 1020,5 hPa 0,0 l/m 45,6 km/h (6 Bft) W 260 0 min 0 W/m 0,7 C -10,3 C 45,6 km/h (6 Bft)
05.03.2008 22:36 4,3 C 77 % 1020,5 hPa 0,0 l/m 43,2 km/h (6 Bft) W-SW 255 0 min 0 W/m 0,6 C -10,1 C 43,2 km/h (6 Bft)
05.03.2008 22:38 4,3 C 77 % 1020,5 hPa 0,0 l/m 45,5 km/h (6 Bft) W 260 0 min 0 W/m 0,6 C -10,5 C 45,5 km/h (6 Bft)
05.03.2008 22:42 4,3 C 78 % 1019,5 hPa 0,0 l/m 39,3 km/h (6 Bft) W 260 0 min 0 W/m 0,8 C -9,4 C 39,3 km/h (6 Bft)
05.03.2008 22:45 4,3 C 78 % 1019,5 hPa 0,0 l/m 42,9 km/h (6 Bft) W 260 0 min 0 W/m 0,8 C -10,1 C 42,9 km/h (6 Bft)
05.03.2008 22:48 4,3 C 78 % 1019,5 hPa 0,0 l/m 37,0 km/h (5 Bft) W-SW 250 0 min 0 W/m 0,8 C -9,0 C 37,0 km/h (5 Bft)
05.03.2008 22:51 4,3 C 77 % 1019,5 hPa 0,0 l/m 47,7 km/h (6 Bft) W 260 0 min 0 W/m 0,6 C -10,8 C 47,7 km/h (6 Bft)
05.03.2008 22:54 4,3 C 77 % 1019,5 hPa 0,0 l/m 48,9 km/h (7 Bft) W 265 0 min 0 W/m 0,6 C -10,9 C 48,9 km/h (7 Bft)
05.03.2008 22:57 4,3 C 77 % 1019,5 hPa 0,0 l/m 49,3 km/h (7 Bft) W-SW 255 0 min 0 W/m 0,6 C -11,0 C 49,3 km/h (7 Bft)
05.03.2008 23:00 4,3 C 77 % 1019,5 hPa 0,0 l/m 43,7 km/h (6 Bft) W 260 0 min 0 W/m 0,6 C -10,2 C 43,7 km/h (6 Bft)
05.03.2008 23:03 4,3 C 77 % 1019,5 hPa 0,0 l/m 38,7 km/h (6 Bft) W-SW 255 0 min 0 W/m 0,6 C -9,3 C 38,7 km/h (6 Bft)
05.03.2008 23:06 4,3 C 77 % 1019,5 hPa 0,0 l/m 45,3 km/h (6 Bft) W-SW 255 0 min 0 W/m 0,6 C -10,4 C 45,3 km/h (6 Bft)
05.03.2008 23:09 4,4 C 77 % 1019,5 hPa 0,0 l/m 51,2 km/h (7 Bft) W 260 0 min 0 W/m 0,7 C -11,1 C 51,2 km/h (7 Bft)
05.03.2008 23:12 4,4 C 77 % 1019,5 hPa 0,0 l/m 41,6 km/h (6 Bft) W-SW 255 0 min 0 W/m 0,7 C -9,7 C 41,6 km/h (6 Bft)
05.03.2008 23:15 4,4 C 77 % 1019,5 hPa 0,0 l/m 40,2 km/h (6 Bft) W 260 0 min 0 W/m 0,7 C -9,4 C 40,2 km/h (6 Bft)
05.03.2008 23:18 4,4 C 77 % 1019,5 hPa 0,0 l/m 43,3 km/h (6 Bft) W 270 0 min 0 W/m 0,7 C -10,0 C 43,3 km/h (6 Bft)
05.03.2008 23:21 4,5 C 77 % 1019,5 hPa 0,0 l/m 45,5 km/h (6 Bft) W-SW 255 0 min 0 W/m 0,8 C -10,2 C 45,5 km/h (6 Bft)
05.03.2008 23:24 4,5 C 77 % 1019,5 hPa 0,0 l/m 48,0 km/h (6 Bft) W 260 0 min 0 W/m 0,8 C -10,5 C 48,0 km/h (6 Bft)
05.03.2008 23:27 4,5 C 77 % 1019,5 hPa 0,0 l/m 42,4 km/h (6 Bft) W-SW 255 0 min 0 W/m 0,8 C -9,7 C 42,4 km/h (6 Bft)
05.03.2008 23:30 4,5 C 78 % 1019,5 hPa 0,0 l/m 43,5 km/h (6 Bft) W 265 0 min 0 W/m 1,0 C -9,9 C 43,5 km/h (6 Bft)
05.03.2008 23:33 4,5 C 77 % 1018,5 hPa 0,0 l/m 44,7 km/h (6 Bft) W-SW 255 0 min 0 W/m 0,8 C -10,0 C 44,7 km/h (6 Bft)
05.03.2008 23:36 4,5 C 77 % 1018,5 hPa 0,0 l/m 52,3 km/h (7 Bft) W-SW 255 0 min 0 W/m 0,8 C -11,0 C 52,3 km/h (7 Bft)
05.03.2008 23:39 4,5 C 78 % 1018,5 hPa 0,0 l/m 44,4 km/h (6 Bft) W-SW 250 0 min 0 W/m 1,0 C -10,0 C 44,4 km/h (6 Bft)
05.03.2008 23:42 4,5 C 79 % 1018,5 hPa 0,0 l/m 44,3 km/h (6 Bft) W 260 0 min 0 W/m 1,2 C -10,0 C 44,3 km/h (6 Bft)
05.03.2008 23:45 4,5 C 80 % 1018,5 hPa 0,0 l/m 46,9 km/h (6 Bft) W-SW 250 0 min 0 W/m 1,4 C -10,4 C 46,9 km/h (6 Bft)
05.03.2008 23:48 4,4 C 81 % 1018,5 hPa 0,0 l/m 37,0 km/h (5 Bft) W 265 0 min 0 W/m 1,4 C -8,8 C 37,0 km/h (5 Bft)
05.03.2008 23:51 4,3 C 81 % 1018,5 hPa 0,0 l/m 50,3 km/h (7 Bft) W 260 0 min 0 W/m 1,3 C -11,1 C 50,3 km/h (7 Bft)
05.03.2008 23:54 4,3 C 81 % 1018,5 hPa 0,0 l/m 46,9 km/h (6 Bft) W-SW 250 0 min 0 W/m 1,3 C -10,7 C 46,9 km/h (6 Bft)
05.03.2008 23:57 4,4 C 80 % 1018,5 hPa 0,0 l/m 49,4 km/h (7 Bft) W 260 0 min 0 W/m 1,3 C -10,8 C 49,4 km/h (7 Bft)
_ Min-Zeit 07:02 00:06 23:33 - 08:30 - - - - 00:09 00:21 08:30
Minimum _ 0,5 C 47 % 1018,5 hPa - 2,9 km/h (1 Bft) - - - - -7,1 C -12,0 C 2,9 km/h (1 Bft)
_ Max-Zeit 14:36 23:48 10:51 00:00 23:36 - - 00:00 00:00 23:48 13:15 23:36
Maximum _ 7,6 C 81 % 1026,5 hPa 0,0 l/m 52,3 km/h
W-SW (7 Bft)
- - 0 min 0 W/m 1,4 C 2,4 C 52,3 km/h
W-SW (7 Bft)
Durchschnitt _ 4,0 C 65 % 1023,2 hPa #0,0 l/m 23,9 km/h (4 Bft) N-NO - #0 min. 0 W/m -2,1 C -4,9 C 23,9 km/h (4 Bft)
copyright by Holger Just